<?xml version="1.0" encoding="UTF-8" standalone="no" ?>
<gpx xmlns="http://www.topografix.com/GPX/1/1" xmlns:xsi="http://www.w3.org/2001/XMLSchema-instance" xsi:schemaLocation="http://www.topografix.com/GPX/1/1 http://www.topografix.com/GPX/1/1/gpx.xsd" version="1.1" creator="VisuGPX - https://www.visugpx.com">
  <metadata>
    <name>9 juil. 2021 rando velo vers Payolle</name>
    <desc><![CDATA[grp_trc:]]></desc>
  </metadata>
  <trk>
    <name><![CDATA[9 juil. 2021]]></name>
    <cmt><![CDATA[09:51:24]]></cmt>
    <desc><![CDATA[comment ...]]></desc>
    <trkseg>
      <trkpt lat="42.98276" lon="0.22831">
        <ele>849</ele>
        <time>2021-07-09T07:51:23Z</time>
      </trkpt>
      <trkpt lat="42.98276" lon="0.22831">
        <ele>849</ele>
        <time>2021-07-09T07:51:24Z</time>
      </trkpt>
      <trkpt lat="42.98281" lon="0.22829">
        <ele>850</ele>
        <time>2021-07-09T07:51:34Z</time>
      </trkpt>
      <trkpt lat="42.98285" lon="0.22825">
        <ele>856</ele>
        <time>2021-07-09T07:54:09Z</time>
      </trkpt>
      <trkpt lat="42.98283" lon="0.2282">
        <ele>856</ele>
        <time>2021-07-09T07:54:13Z</time>
      </trkpt>
      <trkpt lat="42.98262" lon="0.22808">
        <ele>855</ele>
        <time>2021-07-09T07:54:20Z</time>
      </trkpt>
      <trkpt lat="42.98249" lon="0.22809">
        <ele>856</ele>
        <time>2021-07-09T07:54:23Z</time>
      </trkpt>
      <trkpt lat="42.98237" lon="0.22815">
        <ele>856</ele>
        <time>2021-07-09T07:54:26Z</time>
      </trkpt>
      <trkpt lat="42.98225" lon="0.22822">
        <ele>857</ele>
        <time>2021-07-09T07:54:29Z</time>
      </trkpt>
      <trkpt lat="42.98222" lon="0.22826">
        <ele>857</ele>
        <time>2021-07-09T07:54:30Z</time>
      </trkpt>
      <trkpt lat="42.98218" lon="0.22835">
        <ele>857</ele>
        <time>2021-07-09T07:54:32Z</time>
      </trkpt>
      <trkpt lat="42.98216" lon="0.22845">
        <ele>857</ele>
        <time>2021-07-09T07:54:34Z</time>
      </trkpt>
      <trkpt lat="42.98216" lon="0.2286">
        <ele>857</ele>
        <time>2021-07-09T07:54:37Z</time>
      </trkpt>
      <trkpt lat="42.98219" lon="0.22877">
        <ele>857</ele>
        <time>2021-07-09T07:54:40Z</time>
      </trkpt>
      <trkpt lat="42.98223" lon="0.22887">
        <ele>857</ele>
        <time>2021-07-09T07:54:42Z</time>
      </trkpt>
      <trkpt lat="42.98229" lon="0.22894">
        <ele>857</ele>
        <time>2021-07-09T07:54:44Z</time>
      </trkpt>
      <trkpt lat="42.9824" lon="0.22901">
        <ele>857</ele>
        <time>2021-07-09T07:54:47Z</time>
      </trkpt>
      <trkpt lat="42.98266" lon="0.22915">
        <ele>858</ele>
        <time>2021-07-09T07:54:54Z</time>
      </trkpt>
      <trkpt lat="42.9829" lon="0.22938">
        <ele>860</ele>
        <time>2021-07-09T07:55:02Z</time>
      </trkpt>
      <trkpt lat="42.98319" lon="0.22977">
        <ele>864</ele>
        <time>2021-07-09T07:55:13Z</time>
      </trkpt>
      <trkpt lat="42.98323" lon="0.22989">
        <ele>865</ele>
        <time>2021-07-09T07:55:16Z</time>
      </trkpt>
      <trkpt lat="42.98332" lon="0.23038">
        <ele>868</ele>
        <time>2021-07-09T07:55:29Z</time>
      </trkpt>
      <trkpt lat="42.98332" lon="0.23041">
        <ele>868</ele>
        <time>2021-07-09T07:55:30Z</time>
      </trkpt>
      <trkpt lat="42.98332" lon="0.23045">
        <ele>868</ele>
        <time>2021-07-09T07:55:31Z</time>
      </trkpt>
      <trkpt lat="42.9833" lon="0.23048">
        <ele>868</ele>
        <time>2021-07-09T07:55:32Z</time>
      </trkpt>
      <trkpt lat="42.98328" lon="0.2305">
        <ele>868</ele>
        <time>2021-07-09T07:55:33Z</time>
      </trkpt>
      <trkpt lat="42.98318" lon="0.23052">
        <ele>870</ele>
        <time>2021-07-09T07:55:37Z</time>
      </trkpt>
      <trkpt lat="42.98242" lon="0.23061">
        <ele>878</ele>
        <time>2021-07-09T07:56:07Z</time>
      </trkpt>
      <trkpt lat="42.98226" lon="0.23063">
        <ele>879</ele>
        <time>2021-07-09T07:56:14Z</time>
      </trkpt>
      <trkpt lat="42.98223" lon="0.23064">
        <ele>879</ele>
        <time>2021-07-09T07:56:16Z</time>
      </trkpt>
      <trkpt lat="42.98138" lon="0.23091">
        <ele>884</ele>
        <time>2021-07-09T07:56:46Z</time>
      </trkpt>
      <trkpt lat="42.98074" lon="0.2311">
        <ele>887</ele>
        <time>2021-07-09T07:57:07Z</time>
      </trkpt>
      <trkpt lat="42.9807" lon="0.23113">
        <ele>887</ele>
        <time>2021-07-09T07:57:09Z</time>
      </trkpt>
      <trkpt lat="42.98037" lon="0.23141">
        <ele>888</ele>
        <time>2021-07-09T07:57:23Z</time>
      </trkpt>
      <trkpt lat="42.98022" lon="0.23149">
        <ele>888</ele>
        <time>2021-07-09T07:57:28Z</time>
      </trkpt>
      <trkpt lat="42.97925" lon="0.23182">
        <ele>893</ele>
        <time>2021-07-09T07:57:58Z</time>
      </trkpt>
      <trkpt lat="42.97821" lon="0.23215">
        <ele>898</ele>
        <time>2021-07-09T07:58:28Z</time>
      </trkpt>
      <trkpt lat="42.97715" lon="0.23252">
        <ele>902</ele>
        <time>2021-07-09T07:58:59Z</time>
      </trkpt>
      <trkpt lat="42.97628" lon="0.23301">
        <ele>908</ele>
        <time>2021-07-09T07:59:29Z</time>
      </trkpt>
      <trkpt lat="42.9758" lon="0.23323">
        <ele>911</ele>
        <time>2021-07-09T07:59:45Z</time>
      </trkpt>
      <trkpt lat="42.97577" lon="0.23325">
        <ele>911</ele>
        <time>2021-07-09T07:59:46Z</time>
      </trkpt>
      <trkpt lat="42.97575" lon="0.23328">
        <ele>911</ele>
        <time>2021-07-09T07:59:47Z</time>
      </trkpt>
      <trkpt lat="42.97573" lon="0.23331">
        <ele>911</ele>
        <time>2021-07-09T07:59:48Z</time>
      </trkpt>
      <trkpt lat="42.97573" lon="0.23342">
        <ele>911</ele>
        <time>2021-07-09T07:59:51Z</time>
      </trkpt>
      <trkpt lat="42.97594" lon="0.23441">
        <ele>923</ele>
        <time>2021-07-09T08:00:17Z</time>
      </trkpt>
      <trkpt lat="42.97595" lon="0.23444">
        <ele>923</ele>
        <time>2021-07-09T08:00:18Z</time>
      </trkpt>
      <trkpt lat="42.976" lon="0.23454">
        <ele>925</ele>
        <time>2021-07-09T08:00:21Z</time>
      </trkpt>
      <trkpt lat="42.97602" lon="0.23456">
        <ele>925</ele>
        <time>2021-07-09T08:00:22Z</time>
      </trkpt>
      <trkpt lat="42.97611" lon="0.2346">
        <ele>926</ele>
        <time>2021-07-09T08:00:25Z</time>
      </trkpt>
      <trkpt lat="42.97645" lon="0.2347">
        <ele>931</ele>
        <time>2021-07-09T08:00:36Z</time>
      </trkpt>
      <trkpt lat="42.97711" lon="0.23461">
        <ele>938</ele>
        <time>2021-07-09T08:00:57Z</time>
      </trkpt>
      <trkpt lat="42.97743" lon="0.23455">
        <ele>942</ele>
        <time>2021-07-09T08:01:08Z</time>
      </trkpt>
      <trkpt lat="42.97771" lon="0.23461">
        <ele>944</ele>
        <time>2021-07-09T08:01:17Z</time>
      </trkpt>
      <trkpt lat="42.97776" lon="0.23463">
        <ele>944</ele>
        <time>2021-07-09T08:01:19Z</time>
      </trkpt>
      <trkpt lat="42.97781" lon="0.23468">
        <ele>945</ele>
        <time>2021-07-09T08:01:21Z</time>
      </trkpt>
      <trkpt lat="42.97785" lon="0.23475">
        <ele>945</ele>
        <time>2021-07-09T08:01:24Z</time>
      </trkpt>
      <trkpt lat="42.97786" lon="0.23479">
        <ele>946</ele>
        <time>2021-07-09T08:01:25Z</time>
      </trkpt>
      <trkpt lat="42.97786" lon="0.23483">
        <ele>946</ele>
        <time>2021-07-09T08:01:26Z</time>
      </trkpt>
      <trkpt lat="42.97784" lon="0.23491">
        <ele>947</ele>
        <time>2021-07-09T08:01:28Z</time>
      </trkpt>
      <trkpt lat="42.9778" lon="0.23499">
        <ele>948</ele>
        <time>2021-07-09T08:01:30Z</time>
      </trkpt>
      <trkpt lat="42.97761" lon="0.23521">
        <ele>951</ele>
        <time>2021-07-09T08:01:37Z</time>
      </trkpt>
      <trkpt lat="42.97722" lon="0.23552">
        <ele>956</ele>
        <time>2021-07-09T08:01:51Z</time>
      </trkpt>
      <trkpt lat="42.9771" lon="0.23556">
        <ele>958</ele>
        <time>2021-07-09T08:01:55Z</time>
      </trkpt>
      <trkpt lat="42.97694" lon="0.23558">
        <ele>960</ele>
        <time>2021-07-09T08:02:00Z</time>
      </trkpt>
      <trkpt lat="42.97688" lon="0.23562">
        <ele>961</ele>
        <time>2021-07-09T08:02:02Z</time>
      </trkpt>
      <trkpt lat="42.97686" lon="0.23565">
        <ele>961</ele>
        <time>2021-07-09T08:02:03Z</time>
      </trkpt>
      <trkpt lat="42.97684" lon="0.23569">
        <ele>962</ele>
        <time>2021-07-09T08:02:04Z</time>
      </trkpt>
      <trkpt lat="42.97684" lon="0.23573">
        <ele>962</ele>
        <time>2021-07-09T08:02:05Z</time>
      </trkpt>
      <trkpt lat="42.97685" lon="0.23582">
        <ele>963</ele>
        <time>2021-07-09T08:02:07Z</time>
      </trkpt>
      <trkpt lat="42.97694" lon="0.23631">
        <ele>964</ele>
        <time>2021-07-09T08:02:20Z</time>
      </trkpt>
      <trkpt lat="42.97694" lon="0.23644">
        <ele>965</ele>
        <time>2021-07-09T08:02:23Z</time>
      </trkpt>
      <trkpt lat="42.97691" lon="0.23652">
        <ele>966</ele>
        <time>2021-07-09T08:02:25Z</time>
      </trkpt>
      <trkpt lat="42.97688" lon="0.23658">
        <ele>966</ele>
        <time>2021-07-09T08:02:27Z</time>
      </trkpt>
      <trkpt lat="42.97671" lon="0.2368">
        <ele>969</ele>
        <time>2021-07-09T08:02:34Z</time>
      </trkpt>
      <trkpt lat="42.97652" lon="0.23716">
        <ele>973</ele>
        <time>2021-07-09T08:02:45Z</time>
      </trkpt>
      <trkpt lat="42.97628" lon="0.23746">
        <ele>978</ele>
        <time>2021-07-09T08:02:56Z</time>
      </trkpt>
      <trkpt lat="42.9762" lon="0.23764">
        <ele>980</ele>
        <time>2021-07-09T08:03:01Z</time>
      </trkpt>
      <trkpt lat="42.97616" lon="0.23784">
        <ele>982</ele>
        <time>2021-07-09T08:03:06Z</time>
      </trkpt>
      <trkpt lat="42.97608" lon="0.23859">
        <ele>990</ele>
        <time>2021-07-09T08:03:25Z</time>
      </trkpt>
      <trkpt lat="42.97594" lon="0.23902">
        <ele>994</ele>
        <time>2021-07-09T08:03:37Z</time>
      </trkpt>
      <trkpt lat="42.97593" lon="0.23905">
        <ele>994</ele>
        <time>2021-07-09T08:03:38Z</time>
      </trkpt>
      <trkpt lat="42.9759" lon="0.23908">
        <ele>995</ele>
        <time>2021-07-09T08:03:39Z</time>
      </trkpt>
      <trkpt lat="42.97587" lon="0.23909">
        <ele>995</ele>
        <time>2021-07-09T08:03:40Z</time>
      </trkpt>
      <trkpt lat="42.97585" lon="0.23908">
        <ele>995</ele>
        <time>2021-07-09T08:03:41Z</time>
      </trkpt>
      <trkpt lat="42.9758" lon="0.23904">
        <ele>996</ele>
        <time>2021-07-09T08:03:43Z</time>
      </trkpt>
      <trkpt lat="42.97577" lon="0.23897">
        <ele>997</ele>
        <time>2021-07-09T08:03:45Z</time>
      </trkpt>
      <trkpt lat="42.9756" lon="0.23852">
        <ele>1001</ele>
        <time>2021-07-09T08:03:57Z</time>
      </trkpt>
      <trkpt lat="42.97555" lon="0.23846">
        <ele>1002</ele>
        <time>2021-07-09T08:03:59Z</time>
      </trkpt>
      <trkpt lat="42.97536" lon="0.2383">
        <ele>1004</ele>
        <time>2021-07-09T08:04:06Z</time>
      </trkpt>
      <trkpt lat="42.97532" lon="0.23824">
        <ele>1005</ele>
        <time>2021-07-09T08:04:08Z</time>
      </trkpt>
      <trkpt lat="42.9752" lon="0.23793">
        <ele>1008</ele>
        <time>2021-07-09T08:04:16Z</time>
      </trkpt>
      <trkpt lat="42.97515" lon="0.23788">
        <ele>1008</ele>
        <time>2021-07-09T08:04:18Z</time>
      </trkpt>
      <trkpt lat="42.9751" lon="0.23785">
        <ele>1009</ele>
        <time>2021-07-09T08:04:20Z</time>
      </trkpt>
      <trkpt lat="42.97506" lon="0.23785">
        <ele>1009</ele>
        <time>2021-07-09T08:04:21Z</time>
      </trkpt>
      <trkpt lat="42.97503" lon="0.23786">
        <ele>1010</ele>
        <time>2021-07-09T08:04:22Z</time>
      </trkpt>
      <trkpt lat="42.97498" lon="0.23789">
        <ele>1010</ele>
        <time>2021-07-09T08:04:24Z</time>
      </trkpt>
      <trkpt lat="42.97495" lon="0.23792">
        <ele>1011</ele>
        <time>2021-07-09T08:04:25Z</time>
      </trkpt>
      <trkpt lat="42.97493" lon="0.23795">
        <ele>1011</ele>
        <time>2021-07-09T08:04:26Z</time>
      </trkpt>
      <trkpt lat="42.9749" lon="0.23804">
        <ele>1012</ele>
        <time>2021-07-09T08:04:28Z</time>
      </trkpt>
      <trkpt lat="42.9749" lon="0.23826">
        <ele>1013</ele>
        <time>2021-07-09T08:04:33Z</time>
      </trkpt>
      <trkpt lat="42.9749" lon="0.23839">
        <ele>1014</ele>
        <time>2021-07-09T08:04:36Z</time>
      </trkpt>
      <trkpt lat="42.97497" lon="0.23875">
        <ele>1016</ele>
        <time>2021-07-09T08:04:45Z</time>
      </trkpt>
      <trkpt lat="42.97495" lon="0.23884">
        <ele>1016</ele>
        <time>2021-07-09T08:04:47Z</time>
      </trkpt>
      <trkpt lat="42.97489" lon="0.23894">
        <ele>1017</ele>
        <time>2021-07-09T08:04:50Z</time>
      </trkpt>
      <trkpt lat="42.97484" lon="0.23897">
        <ele>1017</ele>
        <time>2021-07-09T08:04:52Z</time>
      </trkpt>
      <trkpt lat="42.97423" lon="0.23905">
        <ele>1022</ele>
        <time>2021-07-09T08:05:11Z</time>
      </trkpt>
      <trkpt lat="42.97379" lon="0.23894">
        <ele>1026</ele>
        <time>2021-07-09T08:05:25Z</time>
      </trkpt>
      <trkpt lat="42.97364" lon="0.23886">
        <ele>1028</ele>
        <time>2021-07-09T08:05:30Z</time>
      </trkpt>
      <trkpt lat="42.97357" lon="0.23885">
        <ele>1028</ele>
        <time>2021-07-09T08:05:32Z</time>
      </trkpt>
      <trkpt lat="42.97304" lon="0.23906">
        <ele>1034</ele>
        <time>2021-07-09T08:05:48Z</time>
      </trkpt>
      <trkpt lat="42.97241" lon="0.23896">
        <ele>1040</ele>
        <time>2021-07-09T08:06:06Z</time>
      </trkpt>
      <trkpt lat="42.97179" lon="0.23921">
        <ele>1048</ele>
        <time>2021-07-09T08:06:25Z</time>
      </trkpt>
      <trkpt lat="42.97141" lon="0.23946">
        <ele>1053</ele>
        <time>2021-07-09T08:06:41Z</time>
      </trkpt>
      <trkpt lat="42.97077" lon="0.23967">
        <ele>1058</ele>
        <time>2021-07-09T08:07:09Z</time>
      </trkpt>
      <trkpt lat="42.97025" lon="0.23976">
        <ele>1061</ele>
        <time>2021-07-09T08:07:25Z</time>
      </trkpt>
      <trkpt lat="42.96949" lon="0.24">
        <ele>1073</ele>
        <time>2021-07-09T08:07:49Z</time>
      </trkpt>
      <trkpt lat="42.96832" lon="0.23998">
        <ele>1079</ele>
        <time>2021-07-09T08:08:19Z</time>
      </trkpt>
      <trkpt lat="42.96717" lon="0.24002">
        <ele>1084</ele>
        <time>2021-07-09T08:08:49Z</time>
      </trkpt>
      <trkpt lat="42.966" lon="0.24007">
        <ele>1086</ele>
        <time>2021-07-09T08:09:19Z</time>
      </trkpt>
      <trkpt lat="42.965" lon="0.24003">
        <ele>1093</ele>
        <time>2021-07-09T08:09:49Z</time>
      </trkpt>
      <trkpt lat="42.96496" lon="0.24002">
        <ele>1093</ele>
        <time>2021-07-09T08:09:50Z</time>
      </trkpt>
      <trkpt lat="42.96439" lon="0.23999">
        <ele>1096</ele>
        <time>2021-07-09T08:10:07Z</time>
      </trkpt>
      <trkpt lat="42.96432" lon="0.23998">
        <ele>1097</ele>
        <time>2021-07-09T08:10:09Z</time>
      </trkpt>
      <trkpt lat="42.9639" lon="0.23993">
        <ele>1100</ele>
        <time>2021-07-09T08:10:22Z</time>
      </trkpt>
      <trkpt lat="42.96384" lon="0.23992">
        <ele>1100</ele>
        <time>2021-07-09T08:10:25Z</time>
      </trkpt>
      <trkpt lat="42.96372" lon="0.23988">
        <ele>1102</ele>
        <time>2021-07-09T08:10:29Z</time>
      </trkpt>
      <trkpt lat="42.96281" lon="0.23964">
        <ele>1111</ele>
        <time>2021-07-09T08:10:59Z</time>
      </trkpt>
      <trkpt lat="42.96222" lon="0.23946">
        <ele>1116</ele>
        <time>2021-07-09T08:11:20Z</time>
      </trkpt>
      <trkpt lat="42.96137" lon="0.23935">
        <ele>1128</ele>
        <time>2021-07-09T08:11:50Z</time>
      </trkpt>
      <trkpt lat="42.96055" lon="0.23932">
        <ele>1134</ele>
        <time>2021-07-09T08:12:18Z</time>
      </trkpt>
      <trkpt lat="42.96009" lon="0.23935">
        <ele>1137</ele>
        <time>2021-07-09T08:12:34Z</time>
      </trkpt>
      <trkpt lat="42.95926" lon="0.23918">
        <ele>1142</ele>
        <time>2021-07-09T08:13:04Z</time>
      </trkpt>
      <trkpt lat="42.95835" lon="0.23885">
        <ele>1144</ele>
        <time>2021-07-09T08:13:34Z</time>
      </trkpt>
      <trkpt lat="42.95741" lon="0.23856">
        <ele>1149</ele>
        <time>2021-07-09T08:14:04Z</time>
      </trkpt>
      <trkpt lat="42.95656" lon="0.23841">
        <ele>1156</ele>
        <time>2021-07-09T08:14:34Z</time>
      </trkpt>
      <trkpt lat="42.95571" lon="0.23835">
        <ele>1163</ele>
        <time>2021-07-09T08:15:04Z</time>
      </trkpt>
      <trkpt lat="42.95491" lon="0.23824">
        <ele>1169</ele>
        <time>2021-07-09T08:15:34Z</time>
      </trkpt>
      <trkpt lat="42.95478" lon="0.23822">
        <ele>1168</ele>
        <time>2021-07-09T08:15:39Z</time>
      </trkpt>
      <trkpt lat="42.95398" lon="0.23789">
        <ele>1175</ele>
        <time>2021-07-09T08:16:09Z</time>
      </trkpt>
      <trkpt lat="42.95313" lon="0.23756">
        <ele>1181</ele>
        <time>2021-07-09T08:16:39Z</time>
      </trkpt>
      <trkpt lat="42.95225" lon="0.23709">
        <ele>1186</ele>
        <time>2021-07-09T08:17:09Z</time>
      </trkpt>
      <trkpt lat="42.95137" lon="0.23669">
        <ele>1190</ele>
        <time>2021-07-09T08:17:40Z</time>
      </trkpt>
      <trkpt lat="42.9508" lon="0.23647">
        <ele>1196</ele>
        <time>2021-07-09T08:18:00Z</time>
      </trkpt>
      <trkpt lat="42.95005" lon="0.23624">
        <ele>1198</ele>
        <time>2021-07-09T08:18:28Z</time>
      </trkpt>
      <trkpt lat="42.94908" lon="0.23569">
        <ele>1198</ele>
        <time>2021-07-09T08:18:58Z</time>
      </trkpt>
      <trkpt lat="42.94814" lon="0.23514">
        <ele>1203</ele>
        <time>2021-07-09T08:19:28Z</time>
      </trkpt>
      <trkpt lat="42.94735" lon="0.23451">
        <ele>1205</ele>
        <time>2021-07-09T08:19:57Z</time>
      </trkpt>
      <trkpt lat="42.9465" lon="0.2338">
        <ele>1209</ele>
        <time>2021-07-09T08:20:27Z</time>
      </trkpt>
      <trkpt lat="42.94578" lon="0.23323">
        <ele>1215</ele>
        <time>2021-07-09T08:20:57Z</time>
      </trkpt>
      <trkpt lat="42.94551" lon="0.23287">
        <ele>1217</ele>
        <time>2021-07-09T08:21:11Z</time>
      </trkpt>
      <trkpt lat="42.94506" lon="0.23214">
        <ele>1219</ele>
        <time>2021-07-09T08:21:38Z</time>
      </trkpt>
      <trkpt lat="42.94503" lon="0.23211">
        <ele>1219</ele>
        <time>2021-07-09T08:21:40Z</time>
      </trkpt>
      <trkpt lat="42.94498" lon="0.2321">
        <ele>1220</ele>
        <time>2021-07-09T08:21:44Z</time>
      </trkpt>
      <trkpt lat="42.945" lon="0.23211">
        <ele>1220</ele>
        <time>2021-07-09T08:22:05Z</time>
      </trkpt>
      <trkpt lat="42.94499" lon="0.2321">
        <ele>1220</ele>
        <time>2021-07-09T08:23:16Z</time>
      </trkpt>
      <trkpt lat="42.94496" lon="0.23206">
        <ele>1220</ele>
        <time>2021-07-09T08:25:01Z</time>
      </trkpt>
      <trkpt lat="42.94495" lon="0.23211">
        <ele>1225</ele>
        <time>2021-07-09T08:27:07Z</time>
      </trkpt>
      <trkpt lat="42.94491" lon="0.23216">
        <ele>1225</ele>
        <time>2021-07-09T08:27:09Z</time>
      </trkpt>
      <trkpt lat="42.94484" lon="0.23234">
        <ele>1224</ele>
        <time>2021-07-09T08:27:15Z</time>
      </trkpt>
      <trkpt lat="42.94469" lon="0.23341">
        <ele>1226</ele>
        <time>2021-07-09T08:27:45Z</time>
      </trkpt>
      <trkpt lat="42.94469" lon="0.23375">
        <ele>1227</ele>
        <time>2021-07-09T08:27:55Z</time>
      </trkpt>
      <trkpt lat="42.94474" lon="0.23402">
        <ele>1228</ele>
        <time>2021-07-09T08:28:14Z</time>
      </trkpt>
      <trkpt lat="42.94493" lon="0.23445">
        <ele>1230</ele>
        <time>2021-07-09T08:28:29Z</time>
      </trkpt>
      <trkpt lat="42.94542" lon="0.23536">
        <ele>1235</ele>
        <time>2021-07-09T08:28:59Z</time>
      </trkpt>
      <trkpt lat="42.94579" lon="0.2361">
        <ele>1238</ele>
        <time>2021-07-09T08:29:21Z</time>
      </trkpt>
      <trkpt lat="42.94581" lon="0.23621">
        <ele>1238</ele>
        <time>2021-07-09T08:29:24Z</time>
      </trkpt>
      <trkpt lat="42.94581" lon="0.23627">
        <ele>1238</ele>
        <time>2021-07-09T08:29:26Z</time>
      </trkpt>
      <trkpt lat="42.9458" lon="0.23637">
        <ele>1238</ele>
        <time>2021-07-09T08:29:29Z</time>
      </trkpt>
      <trkpt lat="42.94574" lon="0.23658">
        <ele>1238</ele>
        <time>2021-07-09T08:29:36Z</time>
      </trkpt>
      <trkpt lat="42.94573" lon="0.23676">
        <ele>1238</ele>
        <time>2021-07-09T08:29:42Z</time>
      </trkpt>
      <trkpt lat="42.94576" lon="0.23692">
        <ele>1238</ele>
        <time>2021-07-09T08:29:47Z</time>
      </trkpt>
      <trkpt lat="42.94583" lon="0.23713">
        <ele>1238</ele>
        <time>2021-07-09T08:30:17Z</time>
      </trkpt>
      <trkpt lat="42.94626" lon="0.23832">
        <ele>1238</ele>
        <time>2021-07-09T08:30:47Z</time>
      </trkpt>
      <trkpt lat="42.94648" lon="0.23905">
        <ele>1237</ele>
        <time>2021-07-09T08:31:11Z</time>
      </trkpt>
      <trkpt lat="42.94648" lon="0.23911">
        <ele>1237</ele>
        <time>2021-07-09T08:31:14Z</time>
      </trkpt>
      <trkpt lat="42.94648" lon="0.23914">
        <ele>1237</ele>
        <time>2021-07-09T08:31:15Z</time>
      </trkpt>
      <trkpt lat="42.94646" lon="0.23916">
        <ele>1237</ele>
        <time>2021-07-09T08:31:16Z</time>
      </trkpt>
      <trkpt lat="42.94645" lon="0.23916">
        <ele>1238</ele>
        <time>2021-07-09T08:31:17Z</time>
      </trkpt>
      <trkpt lat="42.94643" lon="0.23915">
        <ele>1238</ele>
        <time>2021-07-09T08:31:18Z</time>
      </trkpt>
      <trkpt lat="42.94642" lon="0.23914">
        <ele>1238</ele>
        <time>2021-07-09T08:31:19Z</time>
      </trkpt>
      <trkpt lat="42.9464" lon="0.23913">
        <ele>1238</ele>
        <time>2021-07-09T08:31:20Z</time>
      </trkpt>
      <trkpt lat="42.94639" lon="0.23912">
        <ele>1238</ele>
        <time>2021-07-09T08:31:21Z</time>
      </trkpt>
      <trkpt lat="42.94604" lon="0.2388">
        <ele>1242</ele>
        <time>2021-07-09T08:31:41Z</time>
      </trkpt>
      <trkpt lat="42.94595" lon="0.23875">
        <ele>1243</ele>
        <time>2021-07-09T08:31:46Z</time>
      </trkpt>
      <trkpt lat="42.94593" lon="0.23874">
        <ele>1244</ele>
        <time>2021-07-09T08:31:47Z</time>
      </trkpt>
      <trkpt lat="42.94587" lon="0.23876">
        <ele>1245</ele>
        <time>2021-07-09T08:31:50Z</time>
      </trkpt>
      <trkpt lat="42.94585" lon="0.23876">
        <ele>1245</ele>
        <time>2021-07-09T08:31:51Z</time>
      </trkpt>
      <trkpt lat="42.94583" lon="0.23875">
        <ele>1245</ele>
        <time>2021-07-09T08:31:52Z</time>
      </trkpt>
      <trkpt lat="42.94582" lon="0.23873">
        <ele>1245</ele>
        <time>2021-07-09T08:31:53Z</time>
      </trkpt>
      <trkpt lat="42.94568" lon="0.23859">
        <ele>1247</ele>
        <time>2021-07-09T08:32:02Z</time>
      </trkpt>
      <trkpt lat="42.94565" lon="0.23857">
        <ele>1247</ele>
        <time>2021-07-09T08:32:04Z</time>
      </trkpt>
      <trkpt lat="42.94563" lon="0.23856">
        <ele>1247</ele>
        <time>2021-07-09T08:32:05Z</time>
      </trkpt>
      <trkpt lat="42.94561" lon="0.23856">
        <ele>1248</ele>
        <time>2021-07-09T08:32:06Z</time>
      </trkpt>
      <trkpt lat="42.9455" lon="0.23864">
        <ele>1248</ele>
        <time>2021-07-09T08:32:11Z</time>
      </trkpt>
      <trkpt lat="42.94532" lon="0.23869">
        <ele>1249</ele>
        <time>2021-07-09T08:32:18Z</time>
      </trkpt>
      <trkpt lat="42.94527" lon="0.23872">
        <ele>1249</ele>
        <time>2021-07-09T08:32:20Z</time>
      </trkpt>
      <trkpt lat="42.94516" lon="0.23884">
        <ele>1249</ele>
        <time>2021-07-09T08:32:26Z</time>
      </trkpt>
      <trkpt lat="42.94481" lon="0.2394">
        <ele>1252</ele>
        <time>2021-07-09T08:32:46Z</time>
      </trkpt>
      <trkpt lat="42.9445" lon="0.24011">
        <ele>1255</ele>
        <time>2021-07-09T08:33:07Z</time>
      </trkpt>
      <trkpt lat="42.94426" lon="0.24046">
        <ele>1256</ele>
        <time>2021-07-09T08:33:19Z</time>
      </trkpt>
      <trkpt lat="42.94412" lon="0.24056">
        <ele>1257</ele>
        <time>2021-07-09T08:33:25Z</time>
      </trkpt>
      <trkpt lat="42.94408" lon="0.24058">
        <ele>1258</ele>
        <time>2021-07-09T08:33:27Z</time>
      </trkpt>
      <trkpt lat="42.94395" lon="0.24059">
        <ele>1259</ele>
        <time>2021-07-09T08:33:33Z</time>
      </trkpt>
      <trkpt lat="42.9437" lon="0.24055">
        <ele>1261</ele>
        <time>2021-07-09T08:33:47Z</time>
      </trkpt>
      <trkpt lat="42.94347" lon="0.24045">
        <ele>1263</ele>
        <time>2021-07-09T08:33:58Z</time>
      </trkpt>
      <trkpt lat="42.94343" lon="0.24045">
        <ele>1263</ele>
        <time>2021-07-09T08:34:00Z</time>
      </trkpt>
      <trkpt lat="42.9434" lon="0.24045">
        <ele>1263</ele>
        <time>2021-07-09T08:34:01Z</time>
      </trkpt>
      <trkpt lat="42.94338" lon="0.24047">
        <ele>1263</ele>
        <time>2021-07-09T08:34:02Z</time>
      </trkpt>
      <trkpt lat="42.94331" lon="0.24059">
        <ele>1264</ele>
        <time>2021-07-09T08:34:07Z</time>
      </trkpt>
      <trkpt lat="42.94328" lon="0.24069">
        <ele>1266</ele>
        <time>2021-07-09T08:34:11Z</time>
      </trkpt>
      <trkpt lat="42.94328" lon="0.24076">
        <ele>1266</ele>
        <time>2021-07-09T08:34:13Z</time>
      </trkpt>
      <trkpt lat="42.94321" lon="0.24099">
        <ele>1268</ele>
        <time>2021-07-09T08:34:21Z</time>
      </trkpt>
      <trkpt lat="42.94319" lon="0.24105">
        <ele>1268</ele>
        <time>2021-07-09T08:34:23Z</time>
      </trkpt>
      <trkpt lat="42.94298" lon="0.24126">
        <ele>1270</ele>
        <time>2021-07-09T08:34:34Z</time>
      </trkpt>
      <trkpt lat="42.94296" lon="0.2413">
        <ele>1271</ele>
        <time>2021-07-09T08:34:36Z</time>
      </trkpt>
      <trkpt lat="42.94295" lon="0.24133">
        <ele>1271</ele>
        <time>2021-07-09T08:34:37Z</time>
      </trkpt>
      <trkpt lat="42.94295" lon="0.2414">
        <ele>1271</ele>
        <time>2021-07-09T08:34:39Z</time>
      </trkpt>
      <trkpt lat="42.94297" lon="0.2415">
        <ele>1271</ele>
        <time>2021-07-09T08:34:42Z</time>
      </trkpt>
      <trkpt lat="42.94306" lon="0.24169">
        <ele>1273</ele>
        <time>2021-07-09T08:34:49Z</time>
      </trkpt>
      <trkpt lat="42.9431" lon="0.24187">
        <ele>1275</ele>
        <time>2021-07-09T08:34:55Z</time>
      </trkpt>
      <trkpt lat="42.94316" lon="0.24204">
        <ele>1276</ele>
        <time>2021-07-09T08:35:01Z</time>
      </trkpt>
      <trkpt lat="42.94326" lon="0.24257">
        <ele>1280</ele>
        <time>2021-07-09T08:35:18Z</time>
      </trkpt>
      <trkpt lat="42.94327" lon="0.24284">
        <ele>1282</ele>
        <time>2021-07-09T08:35:26Z</time>
      </trkpt>
      <trkpt lat="42.94321" lon="0.24324">
        <ele>1285</ele>
        <time>2021-07-09T08:35:38Z</time>
      </trkpt>
      <trkpt lat="42.94304" lon="0.24378">
        <ele>1288</ele>
        <time>2021-07-09T08:35:55Z</time>
      </trkpt>
      <trkpt lat="42.94295" lon="0.24394">
        <ele>1289</ele>
        <time>2021-07-09T08:36:01Z</time>
      </trkpt>
      <trkpt lat="42.94293" lon="0.24401">
        <ele>1289</ele>
        <time>2021-07-09T08:36:03Z</time>
      </trkpt>
      <trkpt lat="42.94261" lon="0.24454">
        <ele>1292</ele>
        <time>2021-07-09T08:36:24Z</time>
      </trkpt>
      <trkpt lat="42.94222" lon="0.24499">
        <ele>1296</ele>
        <time>2021-07-09T08:36:45Z</time>
      </trkpt>
      <trkpt lat="42.94208" lon="0.24512">
        <ele>1297</ele>
        <time>2021-07-09T08:36:52Z</time>
      </trkpt>
      <trkpt lat="42.94187" lon="0.24533">
        <ele>1299</ele>
        <time>2021-07-09T08:37:03Z</time>
      </trkpt>
      <trkpt lat="42.94172" lon="0.24542">
        <ele>1301</ele>
        <time>2021-07-09T08:37:23Z</time>
      </trkpt>
      <trkpt lat="42.94168" lon="0.24542">
        <ele>1302</ele>
        <time>2021-07-09T08:40:26Z</time>
      </trkpt>
      <trkpt lat="42.94138" lon="0.24546">
        <ele>1305</ele>
        <time>2021-07-09T08:40:40Z</time>
      </trkpt>
      <trkpt lat="42.94136" lon="0.24546">
        <ele>1305</ele>
        <time>2021-07-09T08:40:41Z</time>
      </trkpt>
      <trkpt lat="42.94122" lon="0.24544">
        <ele>1307</ele>
        <time>2021-07-09T08:40:47Z</time>
      </trkpt>
      <trkpt lat="42.94097" lon="0.24534">
        <ele>1309</ele>
        <time>2021-07-09T08:41:00Z</time>
      </trkpt>
      <trkpt lat="42.94076" lon="0.24517">
        <ele>1311</ele>
        <time>2021-07-09T08:41:10Z</time>
      </trkpt>
      <trkpt lat="42.94074" lon="0.24517">
        <ele>1311</ele>
        <time>2021-07-09T08:41:11Z</time>
      </trkpt>
      <trkpt lat="42.94066" lon="0.24519">
        <ele>1311</ele>
        <time>2021-07-09T08:41:14Z</time>
      </trkpt>
      <trkpt lat="42.94052" lon="0.24528">
        <ele>1311</ele>
        <time>2021-07-09T08:41:20Z</time>
      </trkpt>
      <trkpt lat="42.94047" lon="0.24533">
        <ele>1311</ele>
        <time>2021-07-09T08:41:22Z</time>
      </trkpt>
      <trkpt lat="42.94039" lon="0.24544">
        <ele>1312</ele>
        <time>2021-07-09T08:41:26Z</time>
      </trkpt>
      <trkpt lat="42.94034" lon="0.24548">
        <ele>1312</ele>
        <time>2021-07-09T08:41:28Z</time>
      </trkpt>
      <trkpt lat="42.9397" lon="0.24584">
        <ele>1312</ele>
        <time>2021-07-09T08:41:49Z</time>
      </trkpt>
      <trkpt lat="42.93912" lon="0.246">
        <ele>1314</ele>
        <time>2021-07-09T08:42:08Z</time>
      </trkpt>
      <trkpt lat="42.93882" lon="0.24594">
        <ele>1315</ele>
        <time>2021-07-09T08:42:19Z</time>
      </trkpt>
      <trkpt lat="42.93877" lon="0.24596">
        <ele>1316</ele>
        <time>2021-07-09T08:42:21Z</time>
      </trkpt>
      <trkpt lat="42.93857" lon="0.24603">
        <ele>1316</ele>
        <time>2021-07-09T08:42:28Z</time>
      </trkpt>
      <trkpt lat="42.93832" lon="0.24606">
        <ele>1317</ele>
        <time>2021-07-09T08:42:36Z</time>
      </trkpt>
      <trkpt lat="42.93793" lon="0.24598">
        <ele>1319</ele>
        <time>2021-07-09T08:42:50Z</time>
      </trkpt>
      <trkpt lat="42.93785" lon="0.24594">
        <ele>1320</ele>
        <time>2021-07-09T08:42:54Z</time>
      </trkpt>
      <trkpt lat="42.93783" lon="0.24594">
        <ele>1320</ele>
        <time>2021-07-09T08:42:55Z</time>
      </trkpt>
      <trkpt lat="42.93748" lon="0.24587">
        <ele>1323</ele>
        <time>2021-07-09T08:43:11Z</time>
      </trkpt>
      <trkpt lat="42.93719" lon="0.24571">
        <ele>1325</ele>
        <time>2021-07-09T08:43:25Z</time>
      </trkpt>
      <trkpt lat="42.93716" lon="0.24571">
        <ele>1325</ele>
        <time>2021-07-09T08:43:26Z</time>
      </trkpt>
      <trkpt lat="42.93711" lon="0.24572">
        <ele>1324</ele>
        <time>2021-07-09T08:43:28Z</time>
      </trkpt>
      <trkpt lat="42.93703" lon="0.24575">
        <ele>1324</ele>
        <time>2021-07-09T08:43:31Z</time>
      </trkpt>
      <trkpt lat="42.93691" lon="0.24573">
        <ele>1324</ele>
        <time>2021-07-09T08:43:36Z</time>
      </trkpt>
      <trkpt lat="42.93688" lon="0.24573">
        <ele>1324</ele>
        <time>2021-07-09T08:43:37Z</time>
      </trkpt>
      <trkpt lat="42.93686" lon="0.24575">
        <ele>1324</ele>
        <time>2021-07-09T08:43:38Z</time>
      </trkpt>
      <trkpt lat="42.93685" lon="0.2458">
        <ele>1324</ele>
        <time>2021-07-09T08:43:40Z</time>
      </trkpt>
      <trkpt lat="42.93684" lon="0.24583">
        <ele>1324</ele>
        <time>2021-07-09T08:43:41Z</time>
      </trkpt>
      <trkpt lat="42.93684" lon="0.24586">
        <ele>1324</ele>
        <time>2021-07-09T08:43:42Z</time>
      </trkpt>
      <trkpt lat="42.93686" lon="0.24589">
        <ele>1324</ele>
        <time>2021-07-09T08:43:43Z</time>
      </trkpt>
      <trkpt lat="42.93712" lon="0.24626">
        <ele>1329</ele>
        <time>2021-07-09T08:43:58Z</time>
      </trkpt>
      <trkpt lat="42.93716" lon="0.24635">
        <ele>1329</ele>
        <time>2021-07-09T08:44:01Z</time>
      </trkpt>
      <trkpt lat="42.93716" lon="0.24642">
        <ele>1330</ele>
        <time>2021-07-09T08:44:03Z</time>
      </trkpt>
      <trkpt lat="42.93718" lon="0.24671">
        <ele>1330</ele>
        <time>2021-07-09T08:44:11Z</time>
      </trkpt>
      <trkpt lat="42.93723" lon="0.24693">
        <ele>1331</ele>
        <time>2021-07-09T08:44:17Z</time>
      </trkpt>
      <trkpt lat="42.93723" lon="0.24706">
        <ele>1332</ele>
        <time>2021-07-09T08:44:21Z</time>
      </trkpt>
      <trkpt lat="42.93716" lon="0.2473">
        <ele>1333</ele>
        <time>2021-07-09T08:44:30Z</time>
      </trkpt>
      <trkpt lat="42.93715" lon="0.24744">
        <ele>1333</ele>
        <time>2021-07-09T08:44:34Z</time>
      </trkpt>
      <trkpt lat="42.93717" lon="0.2475">
        <ele>1334</ele>
        <time>2021-07-09T08:44:36Z</time>
      </trkpt>
      <trkpt lat="42.93724" lon="0.2477">
        <ele>1335</ele>
        <time>2021-07-09T08:44:43Z</time>
      </trkpt>
      <trkpt lat="42.93731" lon="0.24784">
        <ele>1336</ele>
        <time>2021-07-09T08:44:48Z</time>
      </trkpt>
      <trkpt lat="42.93738" lon="0.2481">
        <ele>1336</ele>
        <time>2021-07-09T08:45:18Z</time>
      </trkpt>
      <trkpt lat="42.93739" lon="0.24812">
        <ele>1337</ele>
        <time>2021-07-09T08:45:22Z</time>
      </trkpt>
      <trkpt lat="42.93739" lon="0.24814">
        <ele>1337</ele>
        <time>2021-07-09T08:45:24Z</time>
      </trkpt>
      <trkpt lat="42.93739" lon="0.24816">
        <ele>1337</ele>
        <time>2021-07-09T08:45:27Z</time>
      </trkpt>
      <trkpt lat="42.9374" lon="0.24817">
        <ele>1338</ele>
        <time>2021-07-09T08:45:30Z</time>
      </trkpt>
      <trkpt lat="42.93739" lon="0.24819">
        <ele>1338</ele>
        <time>2021-07-09T08:45:32Z</time>
      </trkpt>
      <trkpt lat="42.93738" lon="0.24825">
        <ele>1338</ele>
        <time>2021-07-09T08:45:40Z</time>
      </trkpt>
      <trkpt lat="42.93737" lon="0.24828">
        <ele>1337</ele>
        <time>2021-07-09T08:45:55Z</time>
      </trkpt>
      <trkpt lat="42.93738" lon="0.24831">
        <ele>1337</ele>
        <time>2021-07-09T08:46:04Z</time>
      </trkpt>
      <trkpt lat="42.93737" lon="0.24833">
        <ele>1337</ele>
        <time>2021-07-09T08:46:07Z</time>
      </trkpt>
      <trkpt lat="42.93736" lon="0.24838">
        <ele>1337</ele>
        <time>2021-07-09T08:46:12Z</time>
      </trkpt>
      <trkpt lat="42.93735" lon="0.2484">
        <ele>1336</ele>
        <time>2021-07-09T08:46:14Z</time>
      </trkpt>
      <trkpt lat="42.93734" lon="0.24842">
        <ele>1336</ele>
        <time>2021-07-09T08:46:16Z</time>
      </trkpt>
      <trkpt lat="42.93732" lon="0.24842">
        <ele>1337</ele>
        <time>2021-07-09T08:46:40Z</time>
      </trkpt>
      <trkpt lat="42.93731" lon="0.24842">
        <ele>1337</ele>
        <time>2021-07-09T08:46:43Z</time>
      </trkpt>
      <trkpt lat="42.9373" lon="0.24843">
        <ele>1337</ele>
        <time>2021-07-09T08:46:54Z</time>
      </trkpt>
      <trkpt lat="42.93729" lon="0.24845">
        <ele>1337</ele>
        <time>2021-07-09T08:47:15Z</time>
      </trkpt>
      <trkpt lat="42.93729" lon="0.24849">
        <ele>1336</ele>
        <time>2021-07-09T08:47:18Z</time>
      </trkpt>
      <trkpt lat="42.93728" lon="0.24856">
        <ele>1337</ele>
        <time>2021-07-09T08:47:22Z</time>
      </trkpt>
      <trkpt lat="42.93729" lon="0.24866">
        <ele>1337</ele>
        <time>2021-07-09T08:47:28Z</time>
      </trkpt>
      <trkpt lat="42.9373" lon="0.24868">
        <ele>1337</ele>
        <time>2021-07-09T08:47:35Z</time>
      </trkpt>
      <trkpt lat="42.93733" lon="0.24877">
        <ele>1337</ele>
        <time>2021-07-09T08:47:43Z</time>
      </trkpt>
      <trkpt lat="42.93734" lon="0.24879">
        <ele>1337</ele>
        <time>2021-07-09T08:47:45Z</time>
      </trkpt>
      <trkpt lat="42.93736" lon="0.24881">
        <ele>1338</ele>
        <time>2021-07-09T08:47:47Z</time>
      </trkpt>
      <trkpt lat="42.93737" lon="0.24888">
        <ele>1338</ele>
        <time>2021-07-09T08:47:56Z</time>
      </trkpt>
      <trkpt lat="42.93742" lon="0.249">
        <ele>1338</ele>
        <time>2021-07-09T08:48:00Z</time>
      </trkpt>
      <trkpt lat="42.93753" lon="0.2492">
        <ele>1340</ele>
        <time>2021-07-09T08:48:08Z</time>
      </trkpt>
      <trkpt lat="42.93757" lon="0.24932">
        <ele>1341</ele>
        <time>2021-07-09T08:48:12Z</time>
      </trkpt>
      <trkpt lat="42.93789" lon="0.24993">
        <ele>1346</ele>
        <time>2021-07-09T08:48:36Z</time>
      </trkpt>
      <trkpt lat="42.93793" lon="0.25008">
        <ele>1347</ele>
        <time>2021-07-09T08:48:42Z</time>
      </trkpt>
      <trkpt lat="42.93794" lon="0.25011">
        <ele>1347</ele>
        <time>2021-07-09T08:48:43Z</time>
      </trkpt>
      <trkpt lat="42.93793" lon="0.25015">
        <ele>1347</ele>
        <time>2021-07-09T08:48:45Z</time>
      </trkpt>
      <trkpt lat="42.9379" lon="0.25018">
        <ele>1347</ele>
        <time>2021-07-09T08:48:47Z</time>
      </trkpt>
      <trkpt lat="42.93783" lon="0.25016">
        <ele>1348</ele>
        <time>2021-07-09T08:48:51Z</time>
      </trkpt>
      <trkpt lat="42.93747" lon="0.24993">
        <ele>1350</ele>
        <time>2021-07-09T08:49:10Z</time>
      </trkpt>
      <trkpt lat="42.9368" lon="0.24974">
        <ele>1351</ele>
        <time>2021-07-09T08:49:40Z</time>
      </trkpt>
      <trkpt lat="42.93613" lon="0.24959">
        <ele>1353</ele>
        <time>2021-07-09T08:50:10Z</time>
      </trkpt>
      <trkpt lat="42.93543" lon="0.24948">
        <ele>1355</ele>
        <time>2021-07-09T08:50:40Z</time>
      </trkpt>
      <trkpt lat="42.93522" lon="0.24944">
        <ele>1355</ele>
        <time>2021-07-09T08:50:51Z</time>
      </trkpt>
      <trkpt lat="42.93495" lon="0.24949">
        <ele>1355</ele>
        <time>2021-07-09T08:51:04Z</time>
      </trkpt>
      <trkpt lat="42.93492" lon="0.24948">
        <ele>1355</ele>
        <time>2021-07-09T08:51:06Z</time>
      </trkpt>
      <trkpt lat="42.93476" lon="0.24948">
        <ele>1354</ele>
        <time>2021-07-09T08:51:15Z</time>
      </trkpt>
      <trkpt lat="42.9347" lon="0.24946">
        <ele>1353</ele>
        <time>2021-07-09T08:51:18Z</time>
      </trkpt>
      <trkpt lat="42.93463" lon="0.24946">
        <ele>1353</ele>
        <time>2021-07-09T08:51:22Z</time>
      </trkpt>
      <trkpt lat="42.93461" lon="0.24946">
        <ele>1353</ele>
        <time>2021-07-09T08:51:23Z</time>
      </trkpt>
      <trkpt lat="42.93449" lon="0.24945">
        <ele>1352</ele>
        <time>2021-07-09T08:51:28Z</time>
      </trkpt>
      <trkpt lat="42.93378" lon="0.24921">
        <ele>1349</ele>
        <time>2021-07-09T08:51:58Z</time>
      </trkpt>
      <trkpt lat="42.93359" lon="0.24913">
        <ele>1348</ele>
        <time>2021-07-09T08:52:07Z</time>
      </trkpt>
      <trkpt lat="42.93303" lon="0.24861">
        <ele>1348</ele>
        <time>2021-07-09T08:52:37Z</time>
      </trkpt>
      <trkpt lat="42.9326" lon="0.24815">
        <ele>1348</ele>
        <time>2021-07-09T08:53:07Z</time>
      </trkpt>
      <trkpt lat="42.93259" lon="0.24813">
        <ele>1348</ele>
        <time>2021-07-09T08:53:08Z</time>
      </trkpt>
      <trkpt lat="42.9322" lon="0.24777">
        <ele>1346</ele>
        <time>2021-07-09T08:53:29Z</time>
      </trkpt>
      <trkpt lat="42.93171" lon="0.24717">
        <ele>1349</ele>
        <time>2021-07-09T08:53:59Z</time>
      </trkpt>
      <trkpt lat="42.93168" lon="0.24713">
        <ele>1349</ele>
        <time>2021-07-09T08:54:01Z</time>
      </trkpt>
      <trkpt lat="42.93141" lon="0.24692">
        <ele>1347</ele>
        <time>2021-07-09T08:54:16Z</time>
      </trkpt>
      <trkpt lat="42.93123" lon="0.2467">
        <ele>1349</ele>
        <time>2021-07-09T08:54:27Z</time>
      </trkpt>
      <trkpt lat="42.93114" lon="0.2466">
        <ele>1348</ele>
        <time>2021-07-09T08:54:33Z</time>
      </trkpt>
      <trkpt lat="42.93104" lon="0.24648">
        <ele>1349</ele>
        <time>2021-07-09T08:54:40Z</time>
      </trkpt>
      <trkpt lat="42.93103" lon="0.24647">
        <ele>1349</ele>
        <time>2021-07-09T08:54:41Z</time>
      </trkpt>
      <trkpt lat="42.931" lon="0.24645">
        <ele>1348</ele>
        <time>2021-07-09T08:54:43Z</time>
      </trkpt>
      <trkpt lat="42.93096" lon="0.24641">
        <ele>1348</ele>
        <time>2021-07-09T08:54:47Z</time>
      </trkpt>
      <trkpt lat="42.93094" lon="0.24641">
        <ele>1348</ele>
        <time>2021-07-09T08:54:48Z</time>
      </trkpt>
      <trkpt lat="42.93091" lon="0.24639">
        <ele>1348</ele>
        <time>2021-07-09T08:55:29Z</time>
      </trkpt>
      <trkpt lat="42.93088" lon="0.24642">
        <ele>1352</ele>
        <time>2021-07-09T09:00:25Z</time>
      </trkpt>
      <trkpt lat="42.93089" lon="0.24646">
        <ele>1353</ele>
        <time>2021-07-09T09:00:27Z</time>
      </trkpt>
      <trkpt lat="42.93091" lon="0.24649">
        <ele>1354</ele>
        <time>2021-07-09T09:00:29Z</time>
      </trkpt>
      <trkpt lat="42.9309" lon="0.24658">
        <ele>1353</ele>
        <time>2021-07-09T09:00:33Z</time>
      </trkpt>
      <trkpt lat="42.93091" lon="0.24664">
        <ele>1352</ele>
        <time>2021-07-09T09:00:35Z</time>
      </trkpt>
      <trkpt lat="42.93095" lon="0.24672">
        <ele>1350</ele>
        <time>2021-07-09T09:00:39Z</time>
      </trkpt>
      <trkpt lat="42.93098" lon="0.24675">
        <ele>1349</ele>
        <time>2021-07-09T09:00:41Z</time>
      </trkpt>
      <trkpt lat="42.93099" lon="0.24678">
        <ele>1349</ele>
        <time>2021-07-09T09:00:43Z</time>
      </trkpt>
      <trkpt lat="42.931" lon="0.24684">
        <ele>1348</ele>
        <time>2021-07-09T09:00:47Z</time>
      </trkpt>
      <trkpt lat="42.931" lon="0.24688">
        <ele>1347</ele>
        <time>2021-07-09T09:00:49Z</time>
      </trkpt>
      <trkpt lat="42.93099" lon="0.24694">
        <ele>1347</ele>
        <time>2021-07-09T09:00:51Z</time>
      </trkpt>
      <trkpt lat="42.93106" lon="0.2471">
        <ele>1345</ele>
        <time>2021-07-09T09:00:58Z</time>
      </trkpt>
      <trkpt lat="42.9311" lon="0.24718">
        <ele>1344</ele>
        <time>2021-07-09T09:01:02Z</time>
      </trkpt>
      <trkpt lat="42.93112" lon="0.24725">
        <ele>1343</ele>
        <time>2021-07-09T09:01:05Z</time>
      </trkpt>
      <trkpt lat="42.93113" lon="0.24727">
        <ele>1343</ele>
        <time>2021-07-09T09:01:06Z</time>
      </trkpt>
      <trkpt lat="42.9313" lon="0.24792">
        <ele>1333</ele>
        <time>2021-07-09T09:01:29Z</time>
      </trkpt>
      <trkpt lat="42.93136" lon="0.24803">
        <ele>1331</ele>
        <time>2021-07-09T09:01:32Z</time>
      </trkpt>
      <trkpt lat="42.93143" lon="0.24812">
        <ele>1330</ele>
        <time>2021-07-09T09:01:35Z</time>
      </trkpt>
      <trkpt lat="42.93148" lon="0.24826">
        <ele>1330</ele>
        <time>2021-07-09T09:01:40Z</time>
      </trkpt>
      <trkpt lat="42.9315" lon="0.2483">
        <ele>1329</ele>
        <time>2021-07-09T09:01:42Z</time>
      </trkpt>
      <trkpt lat="42.93152" lon="0.24834">
        <ele>1329</ele>
        <time>2021-07-09T09:01:44Z</time>
      </trkpt>
      <trkpt lat="42.93152" lon="0.24837">
        <ele>1328</ele>
        <time>2021-07-09T09:01:45Z</time>
      </trkpt>
      <trkpt lat="42.93153" lon="0.2484">
        <ele>1328</ele>
        <time>2021-07-09T09:01:46Z</time>
      </trkpt>
      <trkpt lat="42.93153" lon="0.24844">
        <ele>1328</ele>
        <time>2021-07-09T09:01:48Z</time>
      </trkpt>
      <trkpt lat="42.93156" lon="0.24853">
        <ele>1326</ele>
        <time>2021-07-09T09:01:52Z</time>
      </trkpt>
      <trkpt lat="42.93158" lon="0.24858">
        <ele>1326</ele>
        <time>2021-07-09T09:01:54Z</time>
      </trkpt>
      <trkpt lat="42.93163" lon="0.24871">
        <ele>1325</ele>
        <time>2021-07-09T09:01:59Z</time>
      </trkpt>
      <trkpt lat="42.93164" lon="0.24877">
        <ele>1324</ele>
        <time>2021-07-09T09:02:01Z</time>
      </trkpt>
      <trkpt lat="42.93171" lon="0.24894">
        <ele>1322</ele>
        <time>2021-07-09T09:02:08Z</time>
      </trkpt>
      <trkpt lat="42.93175" lon="0.24908">
        <ele>1320</ele>
        <time>2021-07-09T09:02:13Z</time>
      </trkpt>
      <trkpt lat="42.93178" lon="0.24919">
        <ele>1318</ele>
        <time>2021-07-09T09:02:17Z</time>
      </trkpt>
      <trkpt lat="42.93185" lon="0.24944">
        <ele>1315</ele>
        <time>2021-07-09T09:02:26Z</time>
      </trkpt>
      <trkpt lat="42.93188" lon="0.2495">
        <ele>1314</ele>
        <time>2021-07-09T09:02:29Z</time>
      </trkpt>
      <trkpt lat="42.93188" lon="0.24954">
        <ele>1313</ele>
        <time>2021-07-09T09:02:31Z</time>
      </trkpt>
      <trkpt lat="42.93182" lon="0.24962">
        <ele>1311</ele>
        <time>2021-07-09T09:02:38Z</time>
      </trkpt>
      <trkpt lat="42.93179" lon="0.24963">
        <ele>1311</ele>
        <time>2021-07-09T09:03:08Z</time>
      </trkpt>
      <trkpt lat="42.93137" lon="0.24978">
        <ele>1304</ele>
        <time>2021-07-09T09:03:30Z</time>
      </trkpt>
      <trkpt lat="42.93135" lon="0.24978">
        <ele>1303</ele>
        <time>2021-07-09T09:03:45Z</time>
      </trkpt>
      <trkpt lat="42.93134" lon="0.24978">
        <ele>1303</ele>
        <time>2021-07-09T09:03:46Z</time>
      </trkpt>
      <trkpt lat="42.93124" lon="0.2498">
        <ele>1301</ele>
        <time>2021-07-09T09:03:51Z</time>
      </trkpt>
      <trkpt lat="42.93107" lon="0.24989">
        <ele>1298</ele>
        <time>2021-07-09T09:04:00Z</time>
      </trkpt>
      <trkpt lat="42.93104" lon="0.24989">
        <ele>1298</ele>
        <time>2021-07-09T09:04:01Z</time>
      </trkpt>
      <trkpt lat="42.93094" lon="0.24989">
        <ele>1298</ele>
        <time>2021-07-09T09:04:06Z</time>
      </trkpt>
      <trkpt lat="42.93086" lon="0.24986">
        <ele>1298</ele>
        <time>2021-07-09T09:04:10Z</time>
      </trkpt>
      <trkpt lat="42.93085" lon="0.24987">
        <ele>1297</ele>
        <time>2021-07-09T09:04:11Z</time>
      </trkpt>
      <trkpt lat="42.93076" lon="0.24994">
        <ele>1296</ele>
        <time>2021-07-09T09:04:16Z</time>
      </trkpt>
      <trkpt lat="42.93068" lon="0.25004">
        <ele>1295</ele>
        <time>2021-07-09T09:04:21Z</time>
      </trkpt>
      <trkpt lat="42.93065" lon="0.25008">
        <ele>1294</ele>
        <time>2021-07-09T09:04:23Z</time>
      </trkpt>
      <trkpt lat="42.93064" lon="0.25011">
        <ele>1294</ele>
        <time>2021-07-09T09:04:24Z</time>
      </trkpt>
      <trkpt lat="42.93064" lon="0.25032">
        <ele>1291</ele>
        <time>2021-07-09T09:04:29Z</time>
      </trkpt>
      <trkpt lat="42.93061" lon="0.25046">
        <ele>1291</ele>
        <time>2021-07-09T09:04:31Z</time>
      </trkpt>
      <trkpt lat="42.93062" lon="0.25058">
        <ele>1291</ele>
        <time>2021-07-09T09:04:34Z</time>
      </trkpt>
      <trkpt lat="42.93074" lon="0.25092">
        <ele>1295</ele>
        <time>2021-07-09T09:04:45Z</time>
      </trkpt>
      <trkpt lat="42.93075" lon="0.25095">
        <ele>1295</ele>
        <time>2021-07-09T09:04:46Z</time>
      </trkpt>
      <trkpt lat="42.93074" lon="0.25107">
        <ele>1295</ele>
        <time>2021-07-09T09:04:50Z</time>
      </trkpt>
      <trkpt lat="42.9307" lon="0.25126">
        <ele>1296</ele>
        <time>2021-07-09T09:04:59Z</time>
      </trkpt>
      <trkpt lat="42.93071" lon="0.25125">
        <ele>1296</ele>
        <time>2021-07-09T09:05:20Z</time>
      </trkpt>
      <trkpt lat="42.93068" lon="0.25129">
        <ele>1300</ele>
        <time>2021-07-09T09:10:03Z</time>
      </trkpt>
      <trkpt lat="42.93067" lon="0.25133">
        <ele>1302</ele>
        <time>2021-07-09T09:10:05Z</time>
      </trkpt>
      <trkpt lat="42.93067" lon="0.25143">
        <ele>1302</ele>
        <time>2021-07-09T09:10:09Z</time>
      </trkpt>
      <trkpt lat="42.93072" lon="0.25165">
        <ele>1301</ele>
        <time>2021-07-09T09:10:16Z</time>
      </trkpt>
      <trkpt lat="42.93072" lon="0.25179">
        <ele>1300</ele>
        <time>2021-07-09T09:10:20Z</time>
      </trkpt>
      <trkpt lat="42.93071" lon="0.25194">
        <ele>1299</ele>
        <time>2021-07-09T09:10:26Z</time>
      </trkpt>
      <trkpt lat="42.93071" lon="0.25198">
        <ele>1298</ele>
        <time>2021-07-09T09:10:28Z</time>
      </trkpt>
      <trkpt lat="42.93074" lon="0.25206">
        <ele>1297</ele>
        <time>2021-07-09T09:10:32Z</time>
      </trkpt>
      <trkpt lat="42.93102" lon="0.25247">
        <ele>1292</ele>
        <time>2021-07-09T09:10:48Z</time>
      </trkpt>
      <trkpt lat="42.93112" lon="0.25256">
        <ele>1291</ele>
        <time>2021-07-09T09:10:54Z</time>
      </trkpt>
      <trkpt lat="42.93151" lon="0.25284">
        <ele>1285</ele>
        <time>2021-07-09T09:11:13Z</time>
      </trkpt>
      <trkpt lat="42.9319" lon="0.25323">
        <ele>1282</ele>
        <time>2021-07-09T09:11:30Z</time>
      </trkpt>
      <trkpt lat="42.93198" lon="0.25327">
        <ele>1281</ele>
        <time>2021-07-09T09:11:33Z</time>
      </trkpt>
      <trkpt lat="42.93233" lon="0.25337">
        <ele>1278</ele>
        <time>2021-07-09T09:11:47Z</time>
      </trkpt>
      <trkpt lat="42.93286" lon="0.25367">
        <ele>1274</ele>
        <time>2021-07-09T09:12:11Z</time>
      </trkpt>
      <trkpt lat="42.9329" lon="0.25367">
        <ele>1274</ele>
        <time>2021-07-09T09:12:13Z</time>
      </trkpt>
      <trkpt lat="42.93299" lon="0.25372">
        <ele>1273</ele>
        <time>2021-07-09T09:12:17Z</time>
      </trkpt>
      <trkpt lat="42.93307" lon="0.2538">
        <ele>1273</ele>
        <time>2021-07-09T09:12:21Z</time>
      </trkpt>
      <trkpt lat="42.93324" lon="0.25414">
        <ele>1273</ele>
        <time>2021-07-09T09:12:34Z</time>
      </trkpt>
      <trkpt lat="42.93334" lon="0.25423">
        <ele>1272</ele>
        <time>2021-07-09T09:12:38Z</time>
      </trkpt>
      <trkpt lat="42.93339" lon="0.25426">
        <ele>1272</ele>
        <time>2021-07-09T09:12:40Z</time>
      </trkpt>
      <trkpt lat="42.93345" lon="0.25428">
        <ele>1272</ele>
        <time>2021-07-09T09:12:42Z</time>
      </trkpt>
      <trkpt lat="42.93353" lon="0.25426">
        <ele>1272</ele>
        <time>2021-07-09T09:12:44Z</time>
      </trkpt>
      <trkpt lat="42.93417" lon="0.25406">
        <ele>1269</ele>
        <time>2021-07-09T09:13:01Z</time>
      </trkpt>
      <trkpt lat="42.93424" lon="0.25407">
        <ele>1269</ele>
        <time>2021-07-09T09:13:03Z</time>
      </trkpt>
      <trkpt lat="42.93433" lon="0.25411">
        <ele>1268</ele>
        <time>2021-07-09T09:13:06Z</time>
      </trkpt>
      <trkpt lat="42.93449" lon="0.25423">
        <ele>1267</ele>
        <time>2021-07-09T09:13:12Z</time>
      </trkpt>
      <trkpt lat="42.93464" lon="0.25427">
        <ele>1266</ele>
        <time>2021-07-09T09:13:17Z</time>
      </trkpt>
      <trkpt lat="42.93471" lon="0.25426">
        <ele>1266</ele>
        <time>2021-07-09T09:13:19Z</time>
      </trkpt>
      <trkpt lat="42.93491" lon="0.25422">
        <ele>1266</ele>
        <time>2021-07-09T09:13:25Z</time>
      </trkpt>
      <trkpt lat="42.935" lon="0.25421">
        <ele>1265</ele>
        <time>2021-07-09T09:13:28Z</time>
      </trkpt>
      <trkpt lat="42.93572" lon="0.25441">
        <ele>1263</ele>
        <time>2021-07-09T09:13:51Z</time>
      </trkpt>
      <trkpt lat="42.93635" lon="0.25471">
        <ele>1259</ele>
        <time>2021-07-09T09:14:19Z</time>
      </trkpt>
      <trkpt lat="42.9366" lon="0.25475">
        <ele>1256</ele>
        <time>2021-07-09T09:14:30Z</time>
      </trkpt>
      <trkpt lat="42.93664" lon="0.25474">
        <ele>1256</ele>
        <time>2021-07-09T09:14:32Z</time>
      </trkpt>
      <trkpt lat="42.93669" lon="0.25475">
        <ele>1255</ele>
        <time>2021-07-09T09:14:34Z</time>
      </trkpt>
      <trkpt lat="42.93677" lon="0.25481">
        <ele>1255</ele>
        <time>2021-07-09T09:14:38Z</time>
      </trkpt>
      <trkpt lat="42.9372" lon="0.25527">
        <ele>1250</ele>
        <time>2021-07-09T09:14:58Z</time>
      </trkpt>
      <trkpt lat="42.9374" lon="0.25556">
        <ele>1248</ele>
        <time>2021-07-09T09:15:06Z</time>
      </trkpt>
      <trkpt lat="42.93752" lon="0.25566">
        <ele>1247</ele>
        <time>2021-07-09T09:15:10Z</time>
      </trkpt>
      <trkpt lat="42.93757" lon="0.25576">
        <ele>1247</ele>
        <time>2021-07-09T09:15:12Z</time>
      </trkpt>
      <trkpt lat="42.93761" lon="0.25588">
        <ele>1246</ele>
        <time>2021-07-09T09:15:14Z</time>
      </trkpt>
      <trkpt lat="42.93835" lon="0.25802">
        <ele>1240</ele>
        <time>2021-07-09T09:15:44Z</time>
      </trkpt>
      <trkpt lat="42.93893" lon="0.25994">
        <ele>1239</ele>
        <time>2021-07-09T09:16:15Z</time>
      </trkpt>
      <trkpt lat="42.93888" lon="0.2613">
        <ele>1237</ele>
        <time>2021-07-09T09:16:46Z</time>
      </trkpt>
      <trkpt lat="42.93839" lon="0.26223">
        <ele>1228</ele>
        <time>2021-07-09T09:17:12Z</time>
      </trkpt>
      <trkpt lat="42.9383" lon="0.26239">
        <ele>1225</ele>
        <time>2021-07-09T09:17:17Z</time>
      </trkpt>
      <trkpt lat="42.93815" lon="0.26298">
        <ele>1220</ele>
        <time>2021-07-09T09:17:29Z</time>
      </trkpt>
      <trkpt lat="42.93814" lon="0.26308">
        <ele>1220</ele>
        <time>2021-07-09T09:17:31Z</time>
      </trkpt>
      <trkpt lat="42.93822" lon="0.26334">
        <ele>1218</ele>
        <time>2021-07-09T09:17:37Z</time>
      </trkpt>
      <trkpt lat="42.93823" lon="0.26368">
        <ele>1216</ele>
        <time>2021-07-09T09:17:45Z</time>
      </trkpt>
      <trkpt lat="42.93812" lon="0.26495">
        <ele>1205</ele>
        <time>2021-07-09T09:18:04Z</time>
      </trkpt>
      <trkpt lat="42.93808" lon="0.26518">
        <ele>1204</ele>
        <time>2021-07-09T09:18:08Z</time>
      </trkpt>
      <trkpt lat="42.93802" lon="0.26598">
        <ele>1197</ele>
        <time>2021-07-09T09:18:21Z</time>
      </trkpt>
      <trkpt lat="42.93792" lon="0.26631">
        <ele>1193</ele>
        <time>2021-07-09T09:18:31Z</time>
      </trkpt>
      <trkpt lat="42.93789" lon="0.26636">
        <ele>1192</ele>
        <time>2021-07-09T09:21:44Z</time>
      </trkpt>
      <trkpt lat="42.93785" lon="0.26635">
        <ele>1192</ele>
        <time>2021-07-09T09:21:47Z</time>
      </trkpt>
      <trkpt lat="42.93781" lon="0.26636">
        <ele>1190</ele>
        <time>2021-07-09T09:21:49Z</time>
      </trkpt>
      <trkpt lat="42.93773" lon="0.26642">
        <ele>1189</ele>
        <time>2021-07-09T09:21:53Z</time>
      </trkpt>
      <trkpt lat="42.9377" lon="0.26645">
        <ele>1189</ele>
        <time>2021-07-09T09:21:56Z</time>
      </trkpt>
      <trkpt lat="42.93767" lon="0.2665">
        <ele>1188</ele>
        <time>2021-07-09T09:21:59Z</time>
      </trkpt>
      <trkpt lat="42.93763" lon="0.26653">
        <ele>1187</ele>
        <time>2021-07-09T09:22:01Z</time>
      </trkpt>
      <trkpt lat="42.9376" lon="0.26657">
        <ele>1187</ele>
        <time>2021-07-09T09:22:05Z</time>
      </trkpt>
      <trkpt lat="42.93754" lon="0.2669">
        <ele>1183</ele>
        <time>2021-07-09T09:22:15Z</time>
      </trkpt>
      <trkpt lat="42.93743" lon="0.26734">
        <ele>1180</ele>
        <time>2021-07-09T09:22:29Z</time>
      </trkpt>
      <trkpt lat="42.93735" lon="0.26767">
        <ele>1177</ele>
        <time>2021-07-09T09:22:39Z</time>
      </trkpt>
      <trkpt lat="42.93733" lon="0.26779">
        <ele>1176</ele>
        <time>2021-07-09T09:22:43Z</time>
      </trkpt>
      <trkpt lat="42.93725" lon="0.26857">
        <ele>1172</ele>
        <time>2021-07-09T09:23:14Z</time>
      </trkpt>
      <trkpt lat="42.93725" lon="0.26877">
        <ele>1171</ele>
        <time>2021-07-09T09:23:21Z</time>
      </trkpt>
      <trkpt lat="42.93724" lon="0.26882">
        <ele>1171</ele>
        <time>2021-07-09T09:23:23Z</time>
      </trkpt>
      <trkpt lat="42.93722" lon="0.26885">
        <ele>1171</ele>
        <time>2021-07-09T09:23:24Z</time>
      </trkpt>
      <trkpt lat="42.93715" lon="0.26889">
        <ele>1171</ele>
        <time>2021-07-09T09:23:28Z</time>
      </trkpt>
      <trkpt lat="42.93713" lon="0.2689">
        <ele>1171</ele>
        <time>2021-07-09T09:23:29Z</time>
      </trkpt>
      <trkpt lat="42.93708" lon="0.2689">
        <ele>1171</ele>
        <time>2021-07-09T09:23:31Z</time>
      </trkpt>
      <trkpt lat="42.93693" lon="0.26886">
        <ele>1171</ele>
        <time>2021-07-09T09:23:37Z</time>
      </trkpt>
      <trkpt lat="42.93689" lon="0.26888">
        <ele>1172</ele>
        <time>2021-07-09T09:23:39Z</time>
      </trkpt>
      <trkpt lat="42.93686" lon="0.2689">
        <ele>1172</ele>
        <time>2021-07-09T09:23:41Z</time>
      </trkpt>
      <trkpt lat="42.93684" lon="0.26891">
        <ele>1172</ele>
        <time>2021-07-09T09:23:42Z</time>
      </trkpt>
      <trkpt lat="42.9368" lon="0.26901">
        <ele>1172</ele>
        <time>2021-07-09T09:23:47Z</time>
      </trkpt>
      <trkpt lat="42.93679" lon="0.26914">
        <ele>1172</ele>
        <time>2021-07-09T09:23:51Z</time>
      </trkpt>
      <trkpt lat="42.93683" lon="0.26944">
        <ele>1171</ele>
        <time>2021-07-09T09:23:58Z</time>
      </trkpt>
      <trkpt lat="42.93685" lon="0.26997">
        <ele>1170</ele>
        <time>2021-07-09T09:24:10Z</time>
      </trkpt>
      <trkpt lat="42.93693" lon="0.27029">
        <ele>1170</ele>
        <time>2021-07-09T09:24:17Z</time>
      </trkpt>
      <trkpt lat="42.93709" lon="0.27066">
        <ele>1170</ele>
        <time>2021-07-09T09:24:26Z</time>
      </trkpt>
      <trkpt lat="42.93764" lon="0.27155">
        <ele>1169</ele>
        <time>2021-07-09T09:24:48Z</time>
      </trkpt>
      <trkpt lat="42.93813" lon="0.27205">
        <ele>1164</ele>
        <time>2021-07-09T09:25:05Z</time>
      </trkpt>
      <trkpt lat="42.93822" lon="0.27211">
        <ele>1163</ele>
        <time>2021-07-09T09:25:08Z</time>
      </trkpt>
      <trkpt lat="42.93832" lon="0.27214">
        <ele>1162</ele>
        <time>2021-07-09T09:25:11Z</time>
      </trkpt>
      <trkpt lat="42.93852" lon="0.27227">
        <ele>1159</ele>
        <time>2021-07-09T09:25:16Z</time>
      </trkpt>
      <trkpt lat="42.93902" lon="0.27249">
        <ele>1153</ele>
        <time>2021-07-09T09:25:27Z</time>
      </trkpt>
      <trkpt lat="42.94006" lon="0.27279">
        <ele>1138</ele>
        <time>2021-07-09T09:25:46Z</time>
      </trkpt>
      <trkpt lat="42.94067" lon="0.27328">
        <ele>1127</ele>
        <time>2021-07-09T09:25:58Z</time>
      </trkpt>
      <trkpt lat="42.94074" lon="0.2734">
        <ele>1126</ele>
        <time>2021-07-09T09:26:00Z</time>
      </trkpt>
      <trkpt lat="42.94079" lon="0.27358">
        <ele>1125</ele>
        <time>2021-07-09T09:26:02Z</time>
      </trkpt>
      <trkpt lat="42.9408" lon="0.27379">
        <ele>1123</ele>
        <time>2021-07-09T09:26:04Z</time>
      </trkpt>
      <trkpt lat="42.9407" lon="0.27448">
        <ele>1120</ele>
        <time>2021-07-09T09:26:12Z</time>
      </trkpt>
      <trkpt lat="42.94091" lon="0.27647">
        <ele>1112</ele>
        <time>2021-07-09T09:26:42Z</time>
      </trkpt>
      <trkpt lat="42.94106" lon="0.27754">
        <ele>1109</ele>
        <time>2021-07-09T09:26:57Z</time>
      </trkpt>
      <trkpt lat="42.94108" lon="0.27757">
        <ele>1109</ele>
        <time>2021-07-09T09:27:03Z</time>
      </trkpt>
      <trkpt lat="42.94109" lon="0.27759">
        <ele>1109</ele>
        <time>2021-07-09T09:27:24Z</time>
      </trkpt>
      <trkpt lat="42.9411" lon="0.27772">
        <ele>1109</ele>
        <time>2021-07-09T09:27:55Z</time>
      </trkpt>
      <trkpt lat="42.94119" lon="0.27806">
        <ele>1108</ele>
        <time>2021-07-09T09:28:02Z</time>
      </trkpt>
      <trkpt lat="42.94129" lon="0.2783">
        <ele>1108</ele>
        <time>2021-07-09T09:28:07Z</time>
      </trkpt>
      <trkpt lat="42.94143" lon="0.27848">
        <ele>1108</ele>
        <time>2021-07-09T09:28:12Z</time>
      </trkpt>
      <trkpt lat="42.94173" lon="0.27872">
        <ele>1107</ele>
        <time>2021-07-09T09:28:21Z</time>
      </trkpt>
      <trkpt lat="42.94201" lon="0.27889">
        <ele>1105</ele>
        <time>2021-07-09T09:28:28Z</time>
      </trkpt>
      <trkpt lat="42.94215" lon="0.27906">
        <ele>1104</ele>
        <time>2021-07-09T09:28:32Z</time>
      </trkpt>
      <trkpt lat="42.94218" lon="0.2791">
        <ele>1103</ele>
        <time>2021-07-09T09:28:33Z</time>
      </trkpt>
      <trkpt lat="42.94219" lon="0.27921">
        <ele>1103</ele>
        <time>2021-07-09T09:28:35Z</time>
      </trkpt>
      <trkpt lat="42.94218" lon="0.27961">
        <ele>1100</ele>
        <time>2021-07-09T09:28:42Z</time>
      </trkpt>
      <trkpt lat="42.94222" lon="0.2798">
        <ele>1099</ele>
        <time>2021-07-09T09:28:46Z</time>
      </trkpt>
      <trkpt lat="42.94229" lon="0.27995">
        <ele>1098</ele>
        <time>2021-07-09T09:28:51Z</time>
      </trkpt>
      <trkpt lat="42.94231" lon="0.27998">
        <ele>1098</ele>
        <time>2021-07-09T09:28:53Z</time>
      </trkpt>
      <trkpt lat="42.94233" lon="0.28001">
        <ele>1098</ele>
        <time>2021-07-09T09:30:43Z</time>
      </trkpt>
      <trkpt lat="42.94236" lon="0.28001">
        <ele>1097</ele>
        <time>2021-07-09T09:30:44Z</time>
      </trkpt>
      <trkpt lat="42.94239" lon="0.27997">
        <ele>1097</ele>
        <time>2021-07-09T09:30:46Z</time>
      </trkpt>
      <trkpt lat="42.94244" lon="0.27987">
        <ele>1097</ele>
        <time>2021-07-09T09:30:49Z</time>
      </trkpt>
      <trkpt lat="42.9425" lon="0.27976">
        <ele>1096</ele>
        <time>2021-07-09T09:30:52Z</time>
      </trkpt>
      <trkpt lat="42.94327" lon="0.27822">
        <ele>1091</ele>
        <time>2021-07-09T09:31:21Z</time>
      </trkpt>
      <trkpt lat="42.94335" lon="0.27811">
        <ele>1090</ele>
        <time>2021-07-09T09:31:24Z</time>
      </trkpt>
      <trkpt lat="42.94341" lon="0.27807">
        <ele>1090</ele>
        <time>2021-07-09T09:31:26Z</time>
      </trkpt>
      <trkpt lat="42.94353" lon="0.27803">
        <ele>1090</ele>
        <time>2021-07-09T09:31:31Z</time>
      </trkpt>
      <trkpt lat="42.94355" lon="0.27803">
        <ele>1090</ele>
        <time>2021-07-09T09:31:32Z</time>
      </trkpt>
      <trkpt lat="42.94356" lon="0.27806">
        <ele>1090</ele>
        <time>2021-07-09T09:31:33Z</time>
      </trkpt>
      <trkpt lat="42.94363" lon="0.27962">
        <ele>1092</ele>
        <time>2021-07-09T09:32:00Z</time>
      </trkpt>
      <trkpt lat="42.94357" lon="0.27995">
        <ele>1092</ele>
        <time>2021-07-09T09:32:05Z</time>
      </trkpt>
      <trkpt lat="42.9434" lon="0.28054">
        <ele>1093</ele>
        <time>2021-07-09T09:32:14Z</time>
      </trkpt>
      <trkpt lat="42.94333" lon="0.28104">
        <ele>1093</ele>
        <time>2021-07-09T09:32:22Z</time>
      </trkpt>
      <trkpt lat="42.94323" lon="0.28136">
        <ele>1093</ele>
        <time>2021-07-09T09:32:27Z</time>
      </trkpt>
      <trkpt lat="42.94285" lon="0.2821">
        <ele>1095</ele>
        <time>2021-07-09T09:32:40Z</time>
      </trkpt>
      <trkpt lat="42.94279" lon="0.28239">
        <ele>1095</ele>
        <time>2021-07-09T09:32:44Z</time>
      </trkpt>
      <trkpt lat="42.94276" lon="0.28284">
        <ele>1096</ele>
        <time>2021-07-09T09:32:50Z</time>
      </trkpt>
      <trkpt lat="42.94282" lon="0.28493">
        <ele>1100</ele>
        <time>2021-07-09T09:33:21Z</time>
      </trkpt>
      <trkpt lat="42.94288" lon="0.28535">
        <ele>1101</ele>
        <time>2021-07-09T09:33:28Z</time>
      </trkpt>
      <trkpt lat="42.94298" lon="0.28561">
        <ele>1102</ele>
        <time>2021-07-09T09:33:33Z</time>
      </trkpt>
      <trkpt lat="42.9437" lon="0.2869">
        <ele>1105</ele>
        <time>2021-07-09T09:34:03Z</time>
      </trkpt>
      <trkpt lat="42.9442" lon="0.28779">
        <ele>1109</ele>
        <time>2021-07-09T09:34:29Z</time>
      </trkpt>
      <trkpt lat="42.94426" lon="0.28782">
        <ele>1110</ele>
        <time>2021-07-09T09:34:31Z</time>
      </trkpt>
      <trkpt lat="42.94431" lon="0.28787">
        <ele>1110</ele>
        <time>2021-07-09T09:34:33Z</time>
      </trkpt>
      <trkpt lat="42.9444" lon="0.28798">
        <ele>1110</ele>
        <time>2021-07-09T09:34:38Z</time>
      </trkpt>
      <trkpt lat="42.94456" lon="0.28807">
        <ele>1111</ele>
        <time>2021-07-09T09:34:44Z</time>
      </trkpt>
      <trkpt lat="42.94496" lon="0.28828">
        <ele>1112</ele>
        <time>2021-07-09T09:34:55Z</time>
      </trkpt>
      <trkpt lat="42.94538" lon="0.28871">
        <ele>1114</ele>
        <time>2021-07-09T09:35:10Z</time>
      </trkpt>
      <trkpt lat="42.94583" lon="0.28933">
        <ele>1119</ele>
        <time>2021-07-09T09:35:29Z</time>
      </trkpt>
      <trkpt lat="42.94617" lon="0.28963">
        <ele>1121</ele>
        <time>2021-07-09T09:35:42Z</time>
      </trkpt>
      <trkpt lat="42.9469" lon="0.2906">
        <ele>1128</ele>
        <time>2021-07-09T09:36:12Z</time>
      </trkpt>
      <trkpt lat="42.94714" lon="0.29089">
        <ele>1129</ele>
        <time>2021-07-09T09:36:21Z</time>
      </trkpt>
      <trkpt lat="42.94751" lon="0.29112">
        <ele>1132</ele>
        <time>2021-07-09T09:36:33Z</time>
      </trkpt>
      <trkpt lat="42.94765" lon="0.29113">
        <ele>1133</ele>
        <time>2021-07-09T09:36:37Z</time>
      </trkpt>
      <trkpt lat="42.94791" lon="0.29106">
        <ele>1137</ele>
        <time>2021-07-09T09:36:44Z</time>
      </trkpt>
      <trkpt lat="42.94806" lon="0.29105">
        <ele>1139</ele>
        <time>2021-07-09T09:36:48Z</time>
      </trkpt>
      <trkpt lat="42.94813" lon="0.29108">
        <ele>1140</ele>
        <time>2021-07-09T09:36:50Z</time>
      </trkpt>
      <trkpt lat="42.94822" lon="0.29116">
        <ele>1140</ele>
        <time>2021-07-09T09:36:53Z</time>
      </trkpt>
      <trkpt lat="42.94832" lon="0.29132">
        <ele>1141</ele>
        <time>2021-07-09T09:36:57Z</time>
      </trkpt>
      <trkpt lat="42.94839" lon="0.29159">
        <ele>1142</ele>
        <time>2021-07-09T09:37:03Z</time>
      </trkpt>
      <trkpt lat="42.94844" lon="0.29212">
        <ele>1144</ele>
        <time>2021-07-09T09:37:15Z</time>
      </trkpt>
      <trkpt lat="42.94859" lon="0.29284">
        <ele>1148</ele>
        <time>2021-07-09T09:37:31Z</time>
      </trkpt>
      <trkpt lat="42.94868" lon="0.29298">
        <ele>1149</ele>
        <time>2021-07-09T09:37:35Z</time>
      </trkpt>
      <trkpt lat="42.94876" lon="0.29306">
        <ele>1150</ele>
        <time>2021-07-09T09:37:38Z</time>
      </trkpt>
      <trkpt lat="42.94895" lon="0.29316">
        <ele>1152</ele>
        <time>2021-07-09T09:37:44Z</time>
      </trkpt>
      <trkpt lat="42.94931" lon="0.29326">
        <ele>1156</ele>
        <time>2021-07-09T09:37:56Z</time>
      </trkpt>
      <trkpt lat="42.94943" lon="0.29332">
        <ele>1158</ele>
        <time>2021-07-09T09:38:00Z</time>
      </trkpt>
      <trkpt lat="42.94985" lon="0.29376">
        <ele>1163</ele>
        <time>2021-07-09T09:38:18Z</time>
      </trkpt>
      <trkpt lat="42.95068" lon="0.29419">
        <ele>1170</ele>
        <time>2021-07-09T09:38:48Z</time>
      </trkpt>
      <trkpt lat="42.95146" lon="0.29479">
        <ele>1174</ele>
        <time>2021-07-09T09:39:18Z</time>
      </trkpt>
      <trkpt lat="42.95167" lon="0.29495">
        <ele>1174</ele>
        <time>2021-07-09T09:39:28Z</time>
      </trkpt>
      <trkpt lat="42.95175" lon="0.29504">
        <ele>1175</ele>
        <time>2021-07-09T09:39:32Z</time>
      </trkpt>
      <trkpt lat="42.95188" lon="0.29511">
        <ele>1176</ele>
        <time>2021-07-09T09:39:38Z</time>
      </trkpt>
      <trkpt lat="42.95202" lon="0.29513">
        <ele>1177</ele>
        <time>2021-07-09T09:39:44Z</time>
      </trkpt>
      <trkpt lat="42.95205" lon="0.29515">
        <ele>1178</ele>
        <time>2021-07-09T09:39:46Z</time>
      </trkpt>
      <trkpt lat="42.95218" lon="0.29519">
        <ele>1179</ele>
        <time>2021-07-09T09:39:52Z</time>
      </trkpt>
      <trkpt lat="42.95222" lon="0.2952">
        <ele>1179</ele>
        <time>2021-07-09T09:39:54Z</time>
      </trkpt>
      <trkpt lat="42.95292" lon="0.29542">
        <ele>1188</ele>
        <time>2021-07-09T09:40:25Z</time>
      </trkpt>
      <trkpt lat="42.95299" lon="0.2954">
        <ele>1189</ele>
        <time>2021-07-09T09:40:28Z</time>
      </trkpt>
      <trkpt lat="42.95308" lon="0.29536">
        <ele>1190</ele>
        <time>2021-07-09T09:40:32Z</time>
      </trkpt>
      <trkpt lat="42.95327" lon="0.29517">
        <ele>1193</ele>
        <time>2021-07-09T09:40:42Z</time>
      </trkpt>
      <trkpt lat="42.95332" lon="0.29514">
        <ele>1194</ele>
        <time>2021-07-09T09:40:44Z</time>
      </trkpt>
      <trkpt lat="42.95369" lon="0.29479">
        <ele>1202</ele>
        <time>2021-07-09T09:41:03Z</time>
      </trkpt>
      <trkpt lat="42.95383" lon="0.29475">
        <ele>1204</ele>
        <time>2021-07-09T09:41:09Z</time>
      </trkpt>
      <trkpt lat="42.95395" lon="0.29479">
        <ele>1206</ele>
        <time>2021-07-09T09:41:14Z</time>
      </trkpt>
      <trkpt lat="42.95407" lon="0.29489">
        <ele>1208</ele>
        <time>2021-07-09T09:41:20Z</time>
      </trkpt>
      <trkpt lat="42.95411" lon="0.29493">
        <ele>1209</ele>
        <time>2021-07-09T09:41:22Z</time>
      </trkpt>
      <trkpt lat="42.95415" lon="0.29497">
        <ele>1210</ele>
        <time>2021-07-09T09:41:24Z</time>
      </trkpt>
      <trkpt lat="42.95455" lon="0.29548">
        <ele>1217</ele>
        <time>2021-07-09T09:41:46Z</time>
      </trkpt>
      <trkpt lat="42.95457" lon="0.29554">
        <ele>1218</ele>
        <time>2021-07-09T09:41:48Z</time>
      </trkpt>
      <trkpt lat="42.95459" lon="0.29568">
        <ele>1218</ele>
        <time>2021-07-09T09:41:54Z</time>
      </trkpt>
      <trkpt lat="42.95459" lon="0.29573">
        <ele>1219</ele>
        <time>2021-07-09T09:41:56Z</time>
      </trkpt>
      <trkpt lat="42.95464" lon="0.29598">
        <ele>1220</ele>
        <time>2021-07-09T09:42:06Z</time>
      </trkpt>
      <trkpt lat="42.95466" lon="0.29611">
        <ele>1219</ele>
        <time>2021-07-09T09:42:12Z</time>
      </trkpt>
      <trkpt lat="42.95475" lon="0.297">
        <ele>1225</ele>
        <time>2021-07-09T09:42:43Z</time>
      </trkpt>
      <trkpt lat="42.95477" lon="0.2973">
        <ele>1228</ele>
        <time>2021-07-09T09:42:53Z</time>
      </trkpt>
      <trkpt lat="42.95471" lon="0.29767">
        <ele>1231</ele>
        <time>2021-07-09T09:43:06Z</time>
      </trkpt>
      <trkpt lat="42.9545" lon="0.29855">
        <ele>1239</ele>
        <time>2021-07-09T09:43:37Z</time>
      </trkpt>
      <trkpt lat="42.95447" lon="0.29865">
        <ele>1240</ele>
        <time>2021-07-09T09:43:41Z</time>
      </trkpt>
      <trkpt lat="42.95449" lon="0.29871">
        <ele>1240</ele>
        <time>2021-07-09T09:43:45Z</time>
      </trkpt>
      <trkpt lat="42.95452" lon="0.29875">
        <ele>1240</ele>
        <time>2021-07-09T09:44:00Z</time>
      </trkpt>
      <trkpt lat="42.95456" lon="0.29878">
        <ele>1240</ele>
        <time>2021-07-09T09:44:03Z</time>
      </trkpt>
      <trkpt lat="42.9546" lon="0.29877">
        <ele>1241</ele>
        <time>2021-07-09T09:44:05Z</time>
      </trkpt>
      <trkpt lat="42.95468" lon="0.29872">
        <ele>1241</ele>
        <time>2021-07-09T09:44:09Z</time>
      </trkpt>
      <trkpt lat="42.95484" lon="0.29852">
        <ele>1242</ele>
        <time>2021-07-09T09:44:18Z</time>
      </trkpt>
      <trkpt lat="42.95488" lon="0.29848">
        <ele>1243</ele>
        <time>2021-07-09T09:44:20Z</time>
      </trkpt>
      <trkpt lat="42.95491" lon="0.29842">
        <ele>1244</ele>
        <time>2021-07-09T09:44:22Z</time>
      </trkpt>
      <trkpt lat="42.95505" lon="0.29824">
        <ele>1247</ele>
        <time>2021-07-09T09:44:30Z</time>
      </trkpt>
      <trkpt lat="42.95517" lon="0.29816">
        <ele>1249</ele>
        <time>2021-07-09T09:44:36Z</time>
      </trkpt>
      <trkpt lat="42.95535" lon="0.29811">
        <ele>1252</ele>
        <time>2021-07-09T09:44:43Z</time>
      </trkpt>
      <trkpt lat="42.95578" lon="0.29827">
        <ele>1258</ele>
        <time>2021-07-09T09:45:02Z</time>
      </trkpt>
      <trkpt lat="42.95646" lon="0.29863">
        <ele>1270</ele>
        <time>2021-07-09T09:45:32Z</time>
      </trkpt>
      <trkpt lat="42.9567" lon="0.29871">
        <ele>1274</ele>
        <time>2021-07-09T09:45:43Z</time>
      </trkpt>
      <trkpt lat="42.95684" lon="0.29879">
        <ele>1275</ele>
        <time>2021-07-09T09:45:50Z</time>
      </trkpt>
      <trkpt lat="42.95695" lon="0.29883">
        <ele>1278</ele>
        <time>2021-07-09T09:45:55Z</time>
      </trkpt>
      <trkpt lat="42.95758" lon="0.29922">
        <ele>1290</ele>
        <time>2021-07-09T09:46:26Z</time>
      </trkpt>
      <trkpt lat="42.95817" lon="0.2996">
        <ele>1299</ele>
        <time>2021-07-09T09:46:56Z</time>
      </trkpt>
      <trkpt lat="42.95864" lon="0.29987">
        <ele>1308</ele>
        <time>2021-07-09T09:47:17Z</time>
      </trkpt>
      <trkpt lat="42.95874" lon="0.29997">
        <ele>1309</ele>
        <time>2021-07-09T09:47:24Z</time>
      </trkpt>
      <trkpt lat="42.9592" lon="0.3003">
        <ele>1316</ele>
        <time>2021-07-09T09:47:46Z</time>
      </trkpt>
      <trkpt lat="42.95926" lon="0.30035">
        <ele>1317</ele>
        <time>2021-07-09T09:47:49Z</time>
      </trkpt>
      <trkpt lat="42.95952" lon="0.30056">
        <ele>1320</ele>
        <time>2021-07-09T09:48:02Z</time>
      </trkpt>
      <trkpt lat="42.9599" lon="0.30096">
        <ele>1330</ele>
        <time>2021-07-09T09:48:21Z</time>
      </trkpt>
      <trkpt lat="42.96011" lon="0.30114">
        <ele>1334</ele>
        <time>2021-07-09T09:48:31Z</time>
      </trkpt>
      <trkpt lat="42.96032" lon="0.3014">
        <ele>1339</ele>
        <time>2021-07-09T09:48:42Z</time>
      </trkpt>
      <trkpt lat="42.96076" lon="0.30171">
        <ele>1346</ele>
        <time>2021-07-09T09:49:01Z</time>
      </trkpt>
      <trkpt lat="42.96082" lon="0.30173">
        <ele>1347</ele>
        <time>2021-07-09T09:49:04Z</time>
      </trkpt>
      <trkpt lat="42.96104" lon="0.30172">
        <ele>1349</ele>
        <time>2021-07-09T09:49:13Z</time>
      </trkpt>
      <trkpt lat="42.96113" lon="0.30176">
        <ele>1351</ele>
        <time>2021-07-09T09:49:17Z</time>
      </trkpt>
      <trkpt lat="42.96149" lon="0.30227">
        <ele>1360</ele>
        <time>2021-07-09T09:49:39Z</time>
      </trkpt>
      <trkpt lat="42.96167" lon="0.30251">
        <ele>1365</ele>
        <time>2021-07-09T09:49:49Z</time>
      </trkpt>
      <trkpt lat="42.96178" lon="0.30267">
        <ele>1367</ele>
        <time>2021-07-09T09:49:55Z</time>
      </trkpt>
      <trkpt lat="42.96194" lon="0.30281">
        <ele>1369</ele>
        <time>2021-07-09T09:50:02Z</time>
      </trkpt>
      <trkpt lat="42.96209" lon="0.30288">
        <ele>1371</ele>
        <time>2021-07-09T09:50:08Z</time>
      </trkpt>
      <trkpt lat="42.96227" lon="0.30292">
        <ele>1372</ele>
        <time>2021-07-09T09:50:16Z</time>
      </trkpt>
      <trkpt lat="42.96299" lon="0.30279">
        <ele>1378</ele>
        <time>2021-07-09T09:50:46Z</time>
      </trkpt>
      <trkpt lat="42.96314" lon="0.30282">
        <ele>1379</ele>
        <time>2021-07-09T09:50:52Z</time>
      </trkpt>
      <trkpt lat="42.96385" lon="0.30315">
        <ele>1384</ele>
        <time>2021-07-09T09:51:19Z</time>
      </trkpt>
      <trkpt lat="42.96409" lon="0.30332">
        <ele>1386</ele>
        <time>2021-07-09T09:51:31Z</time>
      </trkpt>
      <trkpt lat="42.96419" lon="0.30343">
        <ele>1387</ele>
        <time>2021-07-09T09:51:36Z</time>
      </trkpt>
      <trkpt lat="42.96421" lon="0.30345">
        <ele>1387</ele>
        <time>2021-07-09T09:51:37Z</time>
      </trkpt>
      <trkpt lat="42.96424" lon="0.30345">
        <ele>1387</ele>
        <time>2021-07-09T09:51:39Z</time>
      </trkpt>
      <trkpt lat="42.96426" lon="0.30346">
        <ele>1387</ele>
        <time>2021-07-09T09:52:05Z</time>
      </trkpt>
      <trkpt lat="42.96424" lon="0.30355">
        <ele>1387</ele>
        <time>2021-07-09T09:52:13Z</time>
      </trkpt>
      <trkpt lat="42.96422" lon="0.30374">
        <ele>1388</ele>
        <time>2021-07-09T09:52:19Z</time>
      </trkpt>
      <trkpt lat="42.96409" lon="0.30424">
        <ele>1392</ele>
        <time>2021-07-09T09:52:34Z</time>
      </trkpt>
      <trkpt lat="42.96408" lon="0.30451">
        <ele>1394</ele>
        <time>2021-07-09T09:52:41Z</time>
      </trkpt>
      <trkpt lat="42.9641" lon="0.30463">
        <ele>1394</ele>
        <time>2021-07-09T09:52:44Z</time>
      </trkpt>
      <trkpt lat="42.96423" lon="0.30526">
        <ele>1398</ele>
        <time>2021-07-09T09:53:01Z</time>
      </trkpt>
      <trkpt lat="42.96422" lon="0.30579">
        <ele>1401</ele>
        <time>2021-07-09T09:53:15Z</time>
      </trkpt>
      <trkpt lat="42.96427" lon="0.3061">
        <ele>1402</ele>
        <time>2021-07-09T09:53:23Z</time>
      </trkpt>
      <trkpt lat="42.96427" lon="0.30618">
        <ele>1403</ele>
        <time>2021-07-09T09:53:25Z</time>
      </trkpt>
      <trkpt lat="42.96425" lon="0.3063">
        <ele>1403</ele>
        <time>2021-07-09T09:53:28Z</time>
      </trkpt>
      <trkpt lat="42.96415" lon="0.30666">
        <ele>1405</ele>
        <time>2021-07-09T09:53:37Z</time>
      </trkpt>
      <trkpt lat="42.96413" lon="0.30687">
        <ele>1406</ele>
        <time>2021-07-09T09:53:42Z</time>
      </trkpt>
      <trkpt lat="42.96415" lon="0.30735">
        <ele>1409</ele>
        <time>2021-07-09T09:53:53Z</time>
      </trkpt>
      <trkpt lat="42.96412" lon="0.30749">
        <ele>1409</ele>
        <time>2021-07-09T09:53:56Z</time>
      </trkpt>
      <trkpt lat="42.96406" lon="0.30759">
        <ele>1410</ele>
        <time>2021-07-09T09:53:59Z</time>
      </trkpt>
      <trkpt lat="42.96401" lon="0.30766">
        <ele>1410</ele>
        <time>2021-07-09T09:54:01Z</time>
      </trkpt>
      <trkpt lat="42.96386" lon="0.30777">
        <ele>1410</ele>
        <time>2021-07-09T09:54:06Z</time>
      </trkpt>
      <trkpt lat="42.96332" lon="0.3081">
        <ele>1413</ele>
        <time>2021-07-09T09:54:25Z</time>
      </trkpt>
      <trkpt lat="42.96314" lon="0.30831">
        <ele>1414</ele>
        <time>2021-07-09T09:54:33Z</time>
      </trkpt>
      <trkpt lat="42.96289" lon="0.30878">
        <ele>1416</ele>
        <time>2021-07-09T09:54:47Z</time>
      </trkpt>
      <trkpt lat="42.96288" lon="0.30881">
        <ele>1416</ele>
        <time>2021-07-09T09:54:48Z</time>
      </trkpt>
      <trkpt lat="42.96288" lon="0.30884">
        <ele>1416</ele>
        <time>2021-07-09T09:54:49Z</time>
      </trkpt>
      <trkpt lat="42.96289" lon="0.30892">
        <ele>1416</ele>
        <time>2021-07-09T09:54:52Z</time>
      </trkpt>
      <trkpt lat="42.96293" lon="0.30904">
        <ele>1417</ele>
        <time>2021-07-09T09:54:57Z</time>
      </trkpt>
      <trkpt lat="42.96295" lon="0.30906">
        <ele>1417</ele>
        <time>2021-07-09T09:54:58Z</time>
      </trkpt>
      <trkpt lat="42.96298" lon="0.30908">
        <ele>1417</ele>
        <time>2021-07-09T09:55:00Z</time>
      </trkpt>
      <trkpt lat="42.96301" lon="0.30908">
        <ele>1417</ele>
        <time>2021-07-09T09:55:02Z</time>
      </trkpt>
      <trkpt lat="42.96303" lon="0.30909">
        <ele>1417</ele>
        <time>2021-07-09T09:55:04Z</time>
      </trkpt>
      <trkpt lat="42.96303" lon="0.30911">
        <ele>1417</ele>
        <time>2021-07-09T09:55:53Z</time>
      </trkpt>
      <trkpt lat="42.96302" lon="0.3091">
        <ele>1425</ele>
        <time>2021-07-09T10:03:08Z</time>
      </trkpt>
      <trkpt lat="42.96298" lon="0.30911">
        <ele>1427</ele>
        <time>2021-07-09T10:04:23Z</time>
      </trkpt>
      <trkpt lat="42.96293" lon="0.30904">
        <ele>1426</ele>
        <time>2021-07-09T10:04:27Z</time>
      </trkpt>
      <trkpt lat="42.96291" lon="0.309">
        <ele>1425</ele>
        <time>2021-07-09T10:04:29Z</time>
      </trkpt>
      <trkpt lat="42.96292" lon="0.30889">
        <ele>1423</ele>
        <time>2021-07-09T10:04:33Z</time>
      </trkpt>
      <trkpt lat="42.9629" lon="0.30879">
        <ele>1423</ele>
        <time>2021-07-09T10:04:36Z</time>
      </trkpt>
      <trkpt lat="42.96289" lon="0.30876">
        <ele>1423</ele>
        <time>2021-07-09T10:04:37Z</time>
      </trkpt>
      <trkpt lat="42.96292" lon="0.30869">
        <ele>1422</ele>
        <time>2021-07-09T10:04:39Z</time>
      </trkpt>
      <trkpt lat="42.96316" lon="0.30826">
        <ele>1420</ele>
        <time>2021-07-09T10:04:50Z</time>
      </trkpt>
      <trkpt lat="42.96336" lon="0.30804">
        <ele>1418</ele>
        <time>2021-07-09T10:04:56Z</time>
      </trkpt>
      <trkpt lat="42.96403" lon="0.30762">
        <ele>1414</ele>
        <time>2021-07-09T10:05:14Z</time>
      </trkpt>
      <trkpt lat="42.96408" lon="0.30753">
        <ele>1414</ele>
        <time>2021-07-09T10:05:16Z</time>
      </trkpt>
      <trkpt lat="42.96413" lon="0.30743">
        <ele>1413</ele>
        <time>2021-07-09T10:05:18Z</time>
      </trkpt>
      <trkpt lat="42.96415" lon="0.3073">
        <ele>1413</ele>
        <time>2021-07-09T10:05:20Z</time>
      </trkpt>
      <trkpt lat="42.96415" lon="0.30662">
        <ele>1409</ele>
        <time>2021-07-09T10:05:30Z</time>
      </trkpt>
      <trkpt lat="42.96428" lon="0.30608">
        <ele>1406</ele>
        <time>2021-07-09T10:05:38Z</time>
      </trkpt>
      <trkpt lat="42.96428" lon="0.30602">
        <ele>1406</ele>
        <time>2021-07-09T10:05:39Z</time>
      </trkpt>
      <trkpt lat="42.96421" lon="0.30562">
        <ele>1403</ele>
        <time>2021-07-09T10:05:46Z</time>
      </trkpt>
      <trkpt lat="42.96423" lon="0.30516">
        <ele>1400</ele>
        <time>2021-07-09T10:05:53Z</time>
      </trkpt>
      <trkpt lat="42.96418" lon="0.30492">
        <ele>1399</ele>
        <time>2021-07-09T10:05:57Z</time>
      </trkpt>
      <trkpt lat="42.96408" lon="0.30456">
        <ele>1396</ele>
        <time>2021-07-09T10:06:04Z</time>
      </trkpt>
      <trkpt lat="42.96407" lon="0.30441">
        <ele>1395</ele>
        <time>2021-07-09T10:06:07Z</time>
      </trkpt>
      <trkpt lat="42.96408" lon="0.30422">
        <ele>1394</ele>
        <time>2021-07-09T10:06:11Z</time>
      </trkpt>
      <trkpt lat="42.96421" lon="0.30368">
        <ele>1390</ele>
        <time>2021-07-09T10:06:23Z</time>
      </trkpt>
      <trkpt lat="42.96422" lon="0.30353">
        <ele>1389</ele>
        <time>2021-07-09T10:06:26Z</time>
      </trkpt>
      <trkpt lat="42.96424" lon="0.30348">
        <ele>1389</ele>
        <time>2021-07-09T10:06:27Z</time>
      </trkpt>
      <trkpt lat="42.96427" lon="0.30344">
        <ele>1389</ele>
        <time>2021-07-09T10:06:28Z</time>
      </trkpt>
      <trkpt lat="42.96432" lon="0.30339">
        <ele>1389</ele>
        <time>2021-07-09T10:06:30Z</time>
      </trkpt>
      <trkpt lat="42.96436" lon="0.30333">
        <ele>1389</ele>
        <time>2021-07-09T10:06:32Z</time>
      </trkpt>
      <trkpt lat="42.9644" lon="0.3031">
        <ele>1390</ele>
        <time>2021-07-09T10:06:38Z</time>
      </trkpt>
      <trkpt lat="42.96442" lon="0.30236">
        <ele>1396</ele>
        <time>2021-07-09T10:06:58Z</time>
      </trkpt>
      <trkpt lat="42.9642" lon="0.30125">
        <ele>1403</ele>
        <time>2021-07-09T10:07:28Z</time>
      </trkpt>
      <trkpt lat="42.96417" lon="0.3008">
        <ele>1406</ele>
        <time>2021-07-09T10:07:40Z</time>
      </trkpt>
      <trkpt lat="42.96418" lon="0.30036">
        <ele>1409</ele>
        <time>2021-07-09T10:07:52Z</time>
      </trkpt>
      <trkpt lat="42.96416" lon="0.30026">
        <ele>1409</ele>
        <time>2021-07-09T10:07:55Z</time>
      </trkpt>
      <trkpt lat="42.96392" lon="0.29958">
        <ele>1414</ele>
        <time>2021-07-09T10:08:14Z</time>
      </trkpt>
      <trkpt lat="42.96389" lon="0.29911">
        <ele>1417</ele>
        <time>2021-07-09T10:08:26Z</time>
      </trkpt>
      <trkpt lat="42.96401" lon="0.29793">
        <ele>1422</ele>
        <time>2021-07-09T10:08:56Z</time>
      </trkpt>
      <trkpt lat="42.96417" lon="0.29671">
        <ele>1426</ele>
        <time>2021-07-09T10:09:26Z</time>
      </trkpt>
      <trkpt lat="42.96425" lon="0.2965">
        <ele>1427</ele>
        <time>2021-07-09T10:09:32Z</time>
      </trkpt>
      <trkpt lat="42.96444" lon="0.29621">
        <ele>1430</ele>
        <time>2021-07-09T10:09:42Z</time>
      </trkpt>
      <trkpt lat="42.96464" lon="0.29604">
        <ele>1431</ele>
        <time>2021-07-09T10:09:50Z</time>
      </trkpt>
      <trkpt lat="42.96468" lon="0.29598">
        <ele>1431</ele>
        <time>2021-07-09T10:09:52Z</time>
      </trkpt>
      <trkpt lat="42.96472" lon="0.29591">
        <ele>1432</ele>
        <time>2021-07-09T10:09:54Z</time>
      </trkpt>
      <trkpt lat="42.96474" lon="0.29575">
        <ele>1433</ele>
        <time>2021-07-09T10:09:58Z</time>
      </trkpt>
      <trkpt lat="42.96471" lon="0.29545">
        <ele>1434</ele>
        <time>2021-07-09T10:10:06Z</time>
      </trkpt>
      <trkpt lat="42.96464" lon="0.29519">
        <ele>1436</ele>
        <time>2021-07-09T10:10:14Z</time>
      </trkpt>
      <trkpt lat="42.96463" lon="0.29505">
        <ele>1437</ele>
        <time>2021-07-09T10:10:18Z</time>
      </trkpt>
      <trkpt lat="42.96466" lon="0.29493">
        <ele>1438</ele>
        <time>2021-07-09T10:10:22Z</time>
      </trkpt>
      <trkpt lat="42.96469" lon="0.29488">
        <ele>1438</ele>
        <time>2021-07-09T10:10:24Z</time>
      </trkpt>
      <trkpt lat="42.96473" lon="0.29484">
        <ele>1439</ele>
        <time>2021-07-09T10:10:26Z</time>
      </trkpt>
      <trkpt lat="42.96478" lon="0.29483">
        <ele>1439</ele>
        <time>2021-07-09T10:10:28Z</time>
      </trkpt>
      <trkpt lat="42.96483" lon="0.29484">
        <ele>1440</ele>
        <time>2021-07-09T10:10:30Z</time>
      </trkpt>
      <trkpt lat="42.96487" lon="0.29487">
        <ele>1440</ele>
        <time>2021-07-09T10:10:32Z</time>
      </trkpt>
      <trkpt lat="42.96495" lon="0.29498">
        <ele>1441</ele>
        <time>2021-07-09T10:10:36Z</time>
      </trkpt>
      <trkpt lat="42.96517" lon="0.29577">
        <ele>1446</ele>
        <time>2021-07-09T10:11:01Z</time>
      </trkpt>
      <trkpt lat="42.96519" lon="0.29579">
        <ele>1446</ele>
        <time>2021-07-09T10:11:02Z</time>
      </trkpt>
      <trkpt lat="42.96523" lon="0.29583">
        <ele>1447</ele>
        <time>2021-07-09T10:11:04Z</time>
      </trkpt>
      <trkpt lat="42.96525" lon="0.29584">
        <ele>1447</ele>
        <time>2021-07-09T10:11:05Z</time>
      </trkpt>
      <trkpt lat="42.96527" lon="0.29584">
        <ele>1447</ele>
        <time>2021-07-09T10:11:06Z</time>
      </trkpt>
      <trkpt lat="42.96529" lon="0.29583">
        <ele>1448</ele>
        <time>2021-07-09T10:11:07Z</time>
      </trkpt>
      <trkpt lat="42.9653" lon="0.29581">
        <ele>1448</ele>
        <time>2021-07-09T10:11:08Z</time>
      </trkpt>
      <trkpt lat="42.96532" lon="0.29578">
        <ele>1448</ele>
        <time>2021-07-09T10:11:09Z</time>
      </trkpt>
      <trkpt lat="42.96533" lon="0.29572">
        <ele>1449</ele>
        <time>2021-07-09T10:11:11Z</time>
      </trkpt>
      <trkpt lat="42.96532" lon="0.29558">
        <ele>1449</ele>
        <time>2021-07-09T10:11:15Z</time>
      </trkpt>
      <trkpt lat="42.96528" lon="0.29534">
        <ele>1451</ele>
        <time>2021-07-09T10:11:22Z</time>
      </trkpt>
      <trkpt lat="42.96529" lon="0.29518">
        <ele>1451</ele>
        <time>2021-07-09T10:11:27Z</time>
      </trkpt>
      <trkpt lat="42.96534" lon="0.2949">
        <ele>1453</ele>
        <time>2021-07-09T10:11:36Z</time>
      </trkpt>
      <trkpt lat="42.96552" lon="0.29439">
        <ele>1458</ele>
        <time>2021-07-09T10:11:54Z</time>
      </trkpt>
      <trkpt lat="42.96552" lon="0.2943">
        <ele>1459</ele>
        <time>2021-07-09T10:11:57Z</time>
      </trkpt>
      <trkpt lat="42.9655" lon="0.29424">
        <ele>1459</ele>
        <time>2021-07-09T10:11:59Z</time>
      </trkpt>
      <trkpt lat="42.96545" lon="0.29416">
        <ele>1461</ele>
        <time>2021-07-09T10:12:02Z</time>
      </trkpt>
      <trkpt lat="42.96528" lon="0.29401">
        <ele>1463</ele>
        <time>2021-07-09T10:12:10Z</time>
      </trkpt>
      <trkpt lat="42.96524" lon="0.29398">
        <ele>1463</ele>
        <time>2021-07-09T10:12:12Z</time>
      </trkpt>
      <trkpt lat="42.96516" lon="0.29396">
        <ele>1464</ele>
        <time>2021-07-09T10:12:15Z</time>
      </trkpt>
      <trkpt lat="42.96472" lon="0.29395">
        <ele>1468</ele>
        <time>2021-07-09T10:12:35Z</time>
      </trkpt>
      <trkpt lat="42.96471" lon="0.29398">
        <ele>1468</ele>
        <time>2021-07-09T10:16:46Z</time>
      </trkpt>
      <trkpt lat="42.96469" lon="0.29396">
        <ele>1468</ele>
        <time>2021-07-09T10:16:56Z</time>
      </trkpt>
      <trkpt lat="42.9645" lon="0.29391">
        <ele>1469</ele>
        <time>2021-07-09T10:17:06Z</time>
      </trkpt>
      <trkpt lat="42.96444" lon="0.29387">
        <ele>1470</ele>
        <time>2021-07-09T10:17:09Z</time>
      </trkpt>
      <trkpt lat="42.96441" lon="0.29382">
        <ele>1470</ele>
        <time>2021-07-09T10:17:11Z</time>
      </trkpt>
      <trkpt lat="42.96439" lon="0.29376">
        <ele>1470</ele>
        <time>2021-07-09T10:17:13Z</time>
      </trkpt>
      <trkpt lat="42.96438" lon="0.29367">
        <ele>1471</ele>
        <time>2021-07-09T10:17:16Z</time>
      </trkpt>
      <trkpt lat="42.96441" lon="0.29287">
        <ele>1477</ele>
        <time>2021-07-09T10:17:42Z</time>
      </trkpt>
      <trkpt lat="42.96445" lon="0.29258">
        <ele>1479</ele>
        <time>2021-07-09T10:17:52Z</time>
      </trkpt>
      <trkpt lat="42.96446" lon="0.29255">
        <ele>1479</ele>
        <time>2021-07-09T10:17:53Z</time>
      </trkpt>
      <trkpt lat="42.96454" lon="0.29242">
        <ele>1480</ele>
        <time>2021-07-09T10:17:58Z</time>
      </trkpt>
      <trkpt lat="42.9646" lon="0.29236">
        <ele>1481</ele>
        <time>2021-07-09T10:18:01Z</time>
      </trkpt>
      <trkpt lat="42.96503" lon="0.292">
        <ele>1484</ele>
        <time>2021-07-09T10:18:21Z</time>
      </trkpt>
      <trkpt lat="42.96513" lon="0.29183">
        <ele>1485</ele>
        <time>2021-07-09T10:18:28Z</time>
      </trkpt>
      <trkpt lat="42.96517" lon="0.29174">
        <ele>1486</ele>
        <time>2021-07-09T10:18:31Z</time>
      </trkpt>
      <trkpt lat="42.96522" lon="0.29145">
        <ele>1487</ele>
        <time>2021-07-09T10:18:39Z</time>
      </trkpt>
      <trkpt lat="42.96524" lon="0.29115">
        <ele>1487</ele>
        <time>2021-07-09T10:18:48Z</time>
      </trkpt>
      <trkpt lat="42.96524" lon="0.29106">
        <ele>1488</ele>
        <time>2021-07-09T10:18:52Z</time>
      </trkpt>
      <trkpt lat="42.96525" lon="0.29101">
        <ele>1488</ele>
        <time>2021-07-09T10:18:54Z</time>
      </trkpt>
      <trkpt lat="42.96543" lon="0.29048">
        <ele>1489</ele>
        <time>2021-07-09T10:19:13Z</time>
      </trkpt>
      <trkpt lat="42.96565" lon="0.29004">
        <ele>1491</ele>
        <time>2021-07-09T10:19:29Z</time>
      </trkpt>
      <trkpt lat="42.96582" lon="0.28984">
        <ele>1491</ele>
        <time>2021-07-09T10:19:41Z</time>
      </trkpt>
      <trkpt lat="42.96587" lon="0.28976">
        <ele>1491</ele>
        <time>2021-07-09T10:19:45Z</time>
      </trkpt>
      <trkpt lat="42.96587" lon="0.28974">
        <ele>1491</ele>
        <time>2021-07-09T10:19:46Z</time>
      </trkpt>
      <trkpt lat="42.96594" lon="0.28962">
        <ele>1491</ele>
        <time>2021-07-09T10:19:53Z</time>
      </trkpt>
      <trkpt lat="42.96597" lon="0.28958">
        <ele>1491</ele>
        <time>2021-07-09T10:19:56Z</time>
      </trkpt>
      <trkpt lat="42.96603" lon="0.28947">
        <ele>1490</ele>
        <time>2021-07-09T10:20:03Z</time>
      </trkpt>
      <trkpt lat="42.96603" lon="0.28946">
        <ele>1490</ele>
        <time>2021-07-09T10:20:04Z</time>
      </trkpt>
      <trkpt lat="42.96603" lon="0.28945">
        <ele>1490</ele>
        <time>2021-07-09T10:20:10Z</time>
      </trkpt>
      <trkpt lat="42.96605" lon="0.28944">
        <ele>1500</ele>
        <time>2021-07-09T10:52:28Z</time>
      </trkpt>
      <trkpt lat="42.96607" lon="0.28941">
        <ele>1503</ele>
        <time>2021-07-09T11:02:59Z</time>
      </trkpt>
      <trkpt lat="42.96641" lon="0.28897">
        <ele>1495</ele>
        <time>2021-07-09T11:03:19Z</time>
      </trkpt>
      <trkpt lat="42.96669" lon="0.28869">
        <ele>1491</ele>
        <time>2021-07-09T11:03:33Z</time>
      </trkpt>
      <trkpt lat="42.96671" lon="0.28868">
        <ele>1491</ele>
        <time>2021-07-09T11:03:34Z</time>
      </trkpt>
      <trkpt lat="42.96754" lon="0.28786">
        <ele>1479</ele>
        <time>2021-07-09T11:04:04Z</time>
      </trkpt>
      <trkpt lat="42.96818" lon="0.28734">
        <ele>1472</ele>
        <time>2021-07-09T11:04:29Z</time>
      </trkpt>
      <trkpt lat="42.96894" lon="0.28686">
        <ele>1465</ele>
        <time>2021-07-09T11:04:59Z</time>
      </trkpt>
      <trkpt lat="42.96921" lon="0.28677">
        <ele>1463</ele>
        <time>2021-07-09T11:05:09Z</time>
      </trkpt>
      <trkpt lat="42.96937" lon="0.28675">
        <ele>1462</ele>
        <time>2021-07-09T11:05:16Z</time>
      </trkpt>
      <trkpt lat="42.96946" lon="0.2867">
        <ele>1461</ele>
        <time>2021-07-09T11:05:20Z</time>
      </trkpt>
      <trkpt lat="42.96948" lon="0.28667">
        <ele>1461</ele>
        <time>2021-07-09T11:05:22Z</time>
      </trkpt>
      <trkpt lat="42.96951" lon="0.28659">
        <ele>1460</ele>
        <time>2021-07-09T11:05:26Z</time>
      </trkpt>
      <trkpt lat="42.96951" lon="0.28656">
        <ele>1460</ele>
        <time>2021-07-09T11:05:27Z</time>
      </trkpt>
      <trkpt lat="42.9695" lon="0.28654">
        <ele>1460</ele>
        <time>2021-07-09T11:05:28Z</time>
      </trkpt>
      <trkpt lat="42.96949" lon="0.28651">
        <ele>1460</ele>
        <time>2021-07-09T11:05:29Z</time>
      </trkpt>
      <trkpt lat="42.96948" lon="0.28649">
        <ele>1460</ele>
        <time>2021-07-09T11:05:30Z</time>
      </trkpt>
      <trkpt lat="42.96946" lon="0.28648">
        <ele>1459</ele>
        <time>2021-07-09T11:05:31Z</time>
      </trkpt>
      <trkpt lat="42.96944" lon="0.28647">
        <ele>1459</ele>
        <time>2021-07-09T11:05:32Z</time>
      </trkpt>
      <trkpt lat="42.96934" lon="0.28648">
        <ele>1458</ele>
        <time>2021-07-09T11:05:36Z</time>
      </trkpt>
      <trkpt lat="42.96924" lon="0.2865">
        <ele>1457</ele>
        <time>2021-07-09T11:05:41Z</time>
      </trkpt>
      <trkpt lat="42.96859" lon="0.28654">
        <ele>1450</ele>
        <time>2021-07-09T11:06:11Z</time>
      </trkpt>
      <trkpt lat="42.96829" lon="0.28654">
        <ele>1446</ele>
        <time>2021-07-09T11:06:24Z</time>
      </trkpt>
      <trkpt lat="42.96786" lon="0.28643">
        <ele>1442</ele>
        <time>2021-07-09T11:06:40Z</time>
      </trkpt>
      <trkpt lat="42.96759" lon="0.28648">
        <ele>1440</ele>
        <time>2021-07-09T11:06:50Z</time>
      </trkpt>
      <trkpt lat="42.96744" lon="0.28657">
        <ele>1439</ele>
        <time>2021-07-09T11:06:56Z</time>
      </trkpt>
      <trkpt lat="42.96735" lon="0.28663">
        <ele>1438</ele>
        <time>2021-07-09T11:07:00Z</time>
      </trkpt>
      <trkpt lat="42.96729" lon="0.28664">
        <ele>1437</ele>
        <time>2021-07-09T11:07:04Z</time>
      </trkpt>
      <trkpt lat="42.96728" lon="0.28663">
        <ele>1437</ele>
        <time>2021-07-09T11:07:05Z</time>
      </trkpt>
      <trkpt lat="42.96726" lon="0.28662">
        <ele>1437</ele>
        <time>2021-07-09T11:07:06Z</time>
      </trkpt>
      <trkpt lat="42.96725" lon="0.28661">
        <ele>1437</ele>
        <time>2021-07-09T11:07:07Z</time>
      </trkpt>
      <trkpt lat="42.96724" lon="0.28659">
        <ele>1437</ele>
        <time>2021-07-09T11:07:08Z</time>
      </trkpt>
      <trkpt lat="42.96724" lon="0.28656">
        <ele>1436</ele>
        <time>2021-07-09T11:07:09Z</time>
      </trkpt>
      <trkpt lat="42.96724" lon="0.28654">
        <ele>1436</ele>
        <time>2021-07-09T11:07:10Z</time>
      </trkpt>
      <trkpt lat="42.96725" lon="0.28649">
        <ele>1436</ele>
        <time>2021-07-09T11:07:12Z</time>
      </trkpt>
      <trkpt lat="42.96728" lon="0.28643">
        <ele>1435</ele>
        <time>2021-07-09T11:07:15Z</time>
      </trkpt>
      <trkpt lat="42.96729" lon="0.28642">
        <ele>1435</ele>
        <time>2021-07-09T11:07:16Z</time>
      </trkpt>
      <trkpt lat="42.9674" lon="0.28635">
        <ele>1434</ele>
        <time>2021-07-09T11:07:22Z</time>
      </trkpt>
      <trkpt lat="42.96767" lon="0.28612">
        <ele>1432</ele>
        <time>2021-07-09T11:07:37Z</time>
      </trkpt>
      <trkpt lat="42.96783" lon="0.28603">
        <ele>1430</ele>
        <time>2021-07-09T11:07:44Z</time>
      </trkpt>
      <trkpt lat="42.96787" lon="0.28598">
        <ele>1429</ele>
        <time>2021-07-09T11:07:46Z</time>
      </trkpt>
      <trkpt lat="42.9679" lon="0.28594">
        <ele>1429</ele>
        <time>2021-07-09T11:07:48Z</time>
      </trkpt>
      <trkpt lat="42.96791" lon="0.28592">
        <ele>1429</ele>
        <time>2021-07-09T11:07:49Z</time>
      </trkpt>
      <trkpt lat="42.96791" lon="0.28589">
        <ele>1429</ele>
        <time>2021-07-09T11:07:50Z</time>
      </trkpt>
      <trkpt lat="42.96791" lon="0.28587">
        <ele>1428</ele>
        <time>2021-07-09T11:07:51Z</time>
      </trkpt>
      <trkpt lat="42.96788" lon="0.28584">
        <ele>1428</ele>
        <time>2021-07-09T11:07:53Z</time>
      </trkpt>
      <trkpt lat="42.96786" lon="0.28582">
        <ele>1428</ele>
        <time>2021-07-09T11:07:54Z</time>
      </trkpt>
      <trkpt lat="42.96784" lon="0.28581">
        <ele>1428</ele>
        <time>2021-07-09T11:07:55Z</time>
      </trkpt>
      <trkpt lat="42.96775" lon="0.28581">
        <ele>1427</ele>
        <time>2021-07-09T11:07:59Z</time>
      </trkpt>
      <trkpt lat="42.96761" lon="0.28584">
        <ele>1426</ele>
        <time>2021-07-09T11:08:05Z</time>
      </trkpt>
      <trkpt lat="42.96726" lon="0.28599">
        <ele>1422</ele>
        <time>2021-07-09T11:08:20Z</time>
      </trkpt>
      <trkpt lat="42.96723" lon="0.286">
        <ele>1422</ele>
        <time>2021-07-09T11:08:21Z</time>
      </trkpt>
      <trkpt lat="42.96721" lon="0.28597">
        <ele>1422</ele>
        <time>2021-07-09T11:08:22Z</time>
      </trkpt>
      <trkpt lat="42.96718" lon="0.28593">
        <ele>1422</ele>
        <time>2021-07-09T11:08:24Z</time>
      </trkpt>
      <trkpt lat="42.96717" lon="0.28587">
        <ele>1421</ele>
        <time>2021-07-09T11:08:26Z</time>
      </trkpt>
      <trkpt lat="42.96716" lon="0.28535">
        <ele>1417</ele>
        <time>2021-07-09T11:08:42Z</time>
      </trkpt>
      <trkpt lat="42.96706" lon="0.28501">
        <ele>1415</ele>
        <time>2021-07-09T11:08:52Z</time>
      </trkpt>
      <trkpt lat="42.96685" lon="0.28452">
        <ele>1410</ele>
        <time>2021-07-09T11:09:08Z</time>
      </trkpt>
      <trkpt lat="42.96632" lon="0.28372">
        <ele>1401</ele>
        <time>2021-07-09T11:09:38Z</time>
      </trkpt>
      <trkpt lat="42.96604" lon="0.28324">
        <ele>1396</ele>
        <time>2021-07-09T11:09:55Z</time>
      </trkpt>
      <trkpt lat="42.96591" lon="0.28306">
        <ele>1394</ele>
        <time>2021-07-09T11:10:02Z</time>
      </trkpt>
      <trkpt lat="42.96526" lon="0.28206">
        <ele>1386</ele>
        <time>2021-07-09T11:10:32Z</time>
      </trkpt>
      <trkpt lat="42.96519" lon="0.28194">
        <ele>1384</ele>
        <time>2021-07-09T11:10:36Z</time>
      </trkpt>
      <trkpt lat="42.96506" lon="0.28172">
        <ele>1382</ele>
        <time>2021-07-09T11:10:43Z</time>
      </trkpt>
      <trkpt lat="42.96497" lon="0.28158">
        <ele>1380</ele>
        <time>2021-07-09T11:10:47Z</time>
      </trkpt>
      <trkpt lat="42.96478" lon="0.28127">
        <ele>1377</ele>
        <time>2021-07-09T11:10:56Z</time>
      </trkpt>
      <trkpt lat="42.96455" lon="0.28094">
        <ele>1373</ele>
        <time>2021-07-09T11:11:07Z</time>
      </trkpt>
      <trkpt lat="42.96427" lon="0.28043">
        <ele>1369</ele>
        <time>2021-07-09T11:11:21Z</time>
      </trkpt>
      <trkpt lat="42.96414" lon="0.28027">
        <ele>1367</ele>
        <time>2021-07-09T11:11:29Z</time>
      </trkpt>
      <trkpt lat="42.96408" lon="0.28023">
        <ele>1367</ele>
        <time>2021-07-09T11:11:32Z</time>
      </trkpt>
      <trkpt lat="42.96372" lon="0.28008">
        <ele>1364</ele>
        <time>2021-07-09T11:11:49Z</time>
      </trkpt>
      <trkpt lat="42.9637" lon="0.28004">
        <ele>1364</ele>
        <time>2021-07-09T11:11:51Z</time>
      </trkpt>
      <trkpt lat="42.96368" lon="0.28001">
        <ele>1364</ele>
        <time>2021-07-09T11:11:53Z</time>
      </trkpt>
      <trkpt lat="42.96367" lon="0.27995">
        <ele>1363</ele>
        <time>2021-07-09T11:11:55Z</time>
      </trkpt>
      <trkpt lat="42.96368" lon="0.27993">
        <ele>1363</ele>
        <time>2021-07-09T11:11:56Z</time>
      </trkpt>
      <trkpt lat="42.9637" lon="0.27989">
        <ele>1363</ele>
        <time>2021-07-09T11:11:58Z</time>
      </trkpt>
      <trkpt lat="42.96372" lon="0.27985">
        <ele>1362</ele>
        <time>2021-07-09T11:12:00Z</time>
      </trkpt>
      <trkpt lat="42.96378" lon="0.27982">
        <ele>1361</ele>
        <time>2021-07-09T11:12:03Z</time>
      </trkpt>
      <trkpt lat="42.96387" lon="0.27981">
        <ele>1360</ele>
        <time>2021-07-09T11:12:07Z</time>
      </trkpt>
      <trkpt lat="42.96477" lon="0.27983">
        <ele>1350</ele>
        <time>2021-07-09T11:12:37Z</time>
      </trkpt>
      <trkpt lat="42.96506" lon="0.27991">
        <ele>1348</ele>
        <time>2021-07-09T11:12:46Z</time>
      </trkpt>
      <trkpt lat="42.96509" lon="0.2799">
        <ele>1348</ele>
        <time>2021-07-09T11:12:47Z</time>
      </trkpt>
      <trkpt lat="42.96513" lon="0.27985">
        <ele>1347</ele>
        <time>2021-07-09T11:12:49Z</time>
      </trkpt>
      <trkpt lat="42.96514" lon="0.27982">
        <ele>1347</ele>
        <time>2021-07-09T11:12:50Z</time>
      </trkpt>
      <trkpt lat="42.96515" lon="0.27979">
        <ele>1346</ele>
        <time>2021-07-09T11:12:51Z</time>
      </trkpt>
      <trkpt lat="42.96514" lon="0.27975">
        <ele>1346</ele>
        <time>2021-07-09T11:12:52Z</time>
      </trkpt>
      <trkpt lat="42.96512" lon="0.27968">
        <ele>1346</ele>
        <time>2021-07-09T11:12:54Z</time>
      </trkpt>
      <trkpt lat="42.96509" lon="0.27966">
        <ele>1345</ele>
        <time>2021-07-09T11:12:55Z</time>
      </trkpt>
      <trkpt lat="42.96475" lon="0.27941">
        <ele>1342</ele>
        <time>2021-07-09T11:13:06Z</time>
      </trkpt>
      <trkpt lat="42.96443" lon="0.27907">
        <ele>1339</ele>
        <time>2021-07-09T11:13:20Z</time>
      </trkpt>
      <trkpt lat="42.96412" lon="0.27891">
        <ele>1336</ele>
        <time>2021-07-09T11:13:33Z</time>
      </trkpt>
      <trkpt lat="42.9639" lon="0.27887">
        <ele>1333</ele>
        <time>2021-07-09T11:13:40Z</time>
      </trkpt>
      <trkpt lat="42.9631" lon="0.2789">
        <ele>1326</ele>
        <time>2021-07-09T11:14:04Z</time>
      </trkpt>
      <trkpt lat="42.96209" lon="0.27919">
        <ele>1316</ele>
        <time>2021-07-09T11:14:33Z</time>
      </trkpt>
      <trkpt lat="42.96107" lon="0.27921">
        <ele>1305</ele>
        <time>2021-07-09T11:15:00Z</time>
      </trkpt>
      <trkpt lat="42.96015" lon="0.27935">
        <ele>1294</ele>
        <time>2021-07-09T11:15:30Z</time>
      </trkpt>
      <trkpt lat="42.95917" lon="0.27949">
        <ele>1285</ele>
        <time>2021-07-09T11:16:00Z</time>
      </trkpt>
      <trkpt lat="42.95858" lon="0.2794">
        <ele>1279</ele>
        <time>2021-07-09T11:16:17Z</time>
      </trkpt>
      <trkpt lat="42.95831" lon="0.27946">
        <ele>1276</ele>
        <time>2021-07-09T11:16:25Z</time>
      </trkpt>
      <trkpt lat="42.95812" lon="0.27943">
        <ele>1275</ele>
        <time>2021-07-09T11:16:30Z</time>
      </trkpt>
      <trkpt lat="42.95747" lon="0.27916">
        <ele>1269</ele>
        <time>2021-07-09T11:16:47Z</time>
      </trkpt>
      <trkpt lat="42.95741" lon="0.27911">
        <ele>1268</ele>
        <time>2021-07-09T11:16:51Z</time>
      </trkpt>
      <trkpt lat="42.95741" lon="0.27906">
        <ele>1266</ele>
        <time>2021-07-09T11:17:19Z</time>
      </trkpt>
      <trkpt lat="42.9566" lon="0.27883">
        <ele>1261</ele>
        <time>2021-07-09T11:17:49Z</time>
      </trkpt>
      <trkpt lat="42.95637" lon="0.27883">
        <ele>1258</ele>
        <time>2021-07-09T11:17:55Z</time>
      </trkpt>
      <trkpt lat="42.95588" lon="0.27896">
        <ele>1252</ele>
        <time>2021-07-09T11:18:08Z</time>
      </trkpt>
      <trkpt lat="42.95581" lon="0.279">
        <ele>1252</ele>
        <time>2021-07-09T11:18:10Z</time>
      </trkpt>
      <trkpt lat="42.95572" lon="0.27911">
        <ele>1251</ele>
        <time>2021-07-09T11:18:13Z</time>
      </trkpt>
      <trkpt lat="42.95557" lon="0.27939">
        <ele>1249</ele>
        <time>2021-07-09T11:18:20Z</time>
      </trkpt>
      <trkpt lat="42.95501" lon="0.28005">
        <ele>1246</ele>
        <time>2021-07-09T11:18:37Z</time>
      </trkpt>
      <trkpt lat="42.95495" lon="0.28008">
        <ele>1246</ele>
        <time>2021-07-09T11:18:39Z</time>
      </trkpt>
      <trkpt lat="42.95489" lon="0.28006">
        <ele>1245</ele>
        <time>2021-07-09T11:18:41Z</time>
      </trkpt>
      <trkpt lat="42.95483" lon="0.28">
        <ele>1244</ele>
        <time>2021-07-09T11:18:43Z</time>
      </trkpt>
      <trkpt lat="42.95443" lon="0.27841">
        <ele>1228</ele>
        <time>2021-07-09T11:19:14Z</time>
      </trkpt>
      <trkpt lat="42.95415" lon="0.27796">
        <ele>1223</ele>
        <time>2021-07-09T11:19:25Z</time>
      </trkpt>
      <trkpt lat="42.95329" lon="0.27697">
        <ele>1211</ele>
        <time>2021-07-09T11:19:55Z</time>
      </trkpt>
      <trkpt lat="42.95299" lon="0.27658">
        <ele>1206</ele>
        <time>2021-07-09T11:20:06Z</time>
      </trkpt>
      <trkpt lat="42.9529" lon="0.27641">
        <ele>1204</ele>
        <time>2021-07-09T11:20:10Z</time>
      </trkpt>
      <trkpt lat="42.95258" lon="0.27507">
        <ele>1195</ele>
        <time>2021-07-09T11:20:40Z</time>
      </trkpt>
      <trkpt lat="42.95249" lon="0.27435">
        <ele>1190</ele>
        <time>2021-07-09T11:20:56Z</time>
      </trkpt>
      <trkpt lat="42.95235" lon="0.274">
        <ele>1187</ele>
        <time>2021-07-09T11:21:05Z</time>
      </trkpt>
      <trkpt lat="42.95226" lon="0.27385">
        <ele>1185</ele>
        <time>2021-07-09T11:21:09Z</time>
      </trkpt>
      <trkpt lat="42.95219" lon="0.27379">
        <ele>1184</ele>
        <time>2021-07-09T11:21:11Z</time>
      </trkpt>
      <trkpt lat="42.95207" lon="0.27372">
        <ele>1183</ele>
        <time>2021-07-09T11:21:14Z</time>
      </trkpt>
      <trkpt lat="42.95176" lon="0.27369">
        <ele>1181</ele>
        <time>2021-07-09T11:21:21Z</time>
      </trkpt>
      <trkpt lat="42.95169" lon="0.27365">
        <ele>1181</ele>
        <time>2021-07-09T11:21:23Z</time>
      </trkpt>
      <trkpt lat="42.95166" lon="0.27362">
        <ele>1180</ele>
        <time>2021-07-09T11:21:24Z</time>
      </trkpt>
      <trkpt lat="42.95162" lon="0.27355">
        <ele>1180</ele>
        <time>2021-07-09T11:21:26Z</time>
      </trkpt>
      <trkpt lat="42.95162" lon="0.27343">
        <ele>1180</ele>
        <time>2021-07-09T11:21:29Z</time>
      </trkpt>
      <trkpt lat="42.95167" lon="0.27337">
        <ele>1179</ele>
        <time>2021-07-09T11:21:31Z</time>
      </trkpt>
      <trkpt lat="42.95182" lon="0.27336">
        <ele>1177</ele>
        <time>2021-07-09T11:21:35Z</time>
      </trkpt>
      <trkpt lat="42.95234" lon="0.27356">
        <ele>1174</ele>
        <time>2021-07-09T11:21:50Z</time>
      </trkpt>
      <trkpt lat="42.95264" lon="0.27386">
        <ele>1172</ele>
        <time>2021-07-09T11:22:00Z</time>
      </trkpt>
      <trkpt lat="42.95288" lon="0.2742">
        <ele>1168</ele>
        <time>2021-07-09T11:22:09Z</time>
      </trkpt>
      <trkpt lat="42.95295" lon="0.27439">
        <ele>1167</ele>
        <time>2021-07-09T11:22:13Z</time>
      </trkpt>
      <trkpt lat="42.95316" lon="0.27495">
        <ele>1160</ele>
        <time>2021-07-09T11:22:24Z</time>
      </trkpt>
      <trkpt lat="42.95324" lon="0.27508">
        <ele>1159</ele>
        <time>2021-07-09T11:22:27Z</time>
      </trkpt>
      <trkpt lat="42.9533" lon="0.27516">
        <ele>1158</ele>
        <time>2021-07-09T11:22:29Z</time>
      </trkpt>
      <trkpt lat="42.95375" lon="0.27554">
        <ele>1154</ele>
        <time>2021-07-09T11:22:43Z</time>
      </trkpt>
      <trkpt lat="42.95459" lon="0.27579">
        <ele>1145</ele>
        <time>2021-07-09T11:23:06Z</time>
      </trkpt>
      <trkpt lat="42.95466" lon="0.27577">
        <ele>1145</ele>
        <time>2021-07-09T11:23:08Z</time>
      </trkpt>
      <trkpt lat="42.95471" lon="0.2757">
        <ele>1144</ele>
        <time>2021-07-09T11:23:10Z</time>
      </trkpt>
      <trkpt lat="42.95474" lon="0.27558">
        <ele>1144</ele>
        <time>2021-07-09T11:23:14Z</time>
      </trkpt>
      <trkpt lat="42.95472" lon="0.27547">
        <ele>1144</ele>
        <time>2021-07-09T11:24:24Z</time>
      </trkpt>
      <trkpt lat="42.95467" lon="0.2753">
        <ele>1143</ele>
        <time>2021-07-09T11:24:29Z</time>
      </trkpt>
      <trkpt lat="42.95464" lon="0.27522">
        <ele>1143</ele>
        <time>2021-07-09T11:24:31Z</time>
      </trkpt>
      <trkpt lat="42.95449" lon="0.27501">
        <ele>1140</ele>
        <time>2021-07-09T11:24:37Z</time>
      </trkpt>
      <trkpt lat="42.95442" lon="0.27495">
        <ele>1138</ele>
        <time>2021-07-09T11:24:39Z</time>
      </trkpt>
      <trkpt lat="42.95385" lon="0.27468">
        <ele>1132</ele>
        <time>2021-07-09T11:24:53Z</time>
      </trkpt>
      <trkpt lat="42.95382" lon="0.27465">
        <ele>1131</ele>
        <time>2021-07-09T11:24:54Z</time>
      </trkpt>
      <trkpt lat="42.95376" lon="0.27449">
        <ele>1130</ele>
        <time>2021-07-09T11:24:58Z</time>
      </trkpt>
      <trkpt lat="42.95375" lon="0.27427">
        <ele>1127</ele>
        <time>2021-07-09T11:25:02Z</time>
      </trkpt>
      <trkpt lat="42.95389" lon="0.27348">
        <ele>1121</ele>
        <time>2021-07-09T11:25:15Z</time>
      </trkpt>
      <trkpt lat="42.95387" lon="0.27325">
        <ele>1120</ele>
        <time>2021-07-09T11:25:19Z</time>
      </trkpt>
      <trkpt lat="42.95383" lon="0.2731">
        <ele>1119</ele>
        <time>2021-07-09T11:25:22Z</time>
      </trkpt>
      <trkpt lat="42.95369" lon="0.27282">
        <ele>1118</ele>
        <time>2021-07-09T11:25:28Z</time>
      </trkpt>
      <trkpt lat="42.95357" lon="0.27269">
        <ele>1117</ele>
        <time>2021-07-09T11:25:32Z</time>
      </trkpt>
      <trkpt lat="42.9532" lon="0.27246">
        <ele>1114</ele>
        <time>2021-07-09T11:25:43Z</time>
      </trkpt>
      <trkpt lat="42.95315" lon="0.27241">
        <ele>1113</ele>
        <time>2021-07-09T11:25:45Z</time>
      </trkpt>
      <trkpt lat="42.95309" lon="0.27233">
        <ele>1113</ele>
        <time>2021-07-09T11:25:48Z</time>
      </trkpt>
      <trkpt lat="42.95303" lon="0.27207">
        <ele>1111</ele>
        <time>2021-07-09T11:25:54Z</time>
      </trkpt>
      <trkpt lat="42.95297" lon="0.27183">
        <ele>1109</ele>
        <time>2021-07-09T11:26:00Z</time>
      </trkpt>
      <trkpt lat="42.95283" lon="0.27156">
        <ele>1107</ele>
        <time>2021-07-09T11:26:07Z</time>
      </trkpt>
      <trkpt lat="42.95264" lon="0.27123">
        <ele>1104</ele>
        <time>2021-07-09T11:26:18Z</time>
      </trkpt>
      <trkpt lat="42.95226" lon="0.27093">
        <ele>1101</ele>
        <time>2021-07-09T11:26:34Z</time>
      </trkpt>
      <trkpt lat="42.95198" lon="0.27079">
        <ele>1098</ele>
        <time>2021-07-09T11:26:44Z</time>
      </trkpt>
      <trkpt lat="42.95177" lon="0.27075">
        <ele>1097</ele>
        <time>2021-07-09T11:26:50Z</time>
      </trkpt>
      <trkpt lat="42.95083" lon="0.27082">
        <ele>1088</ele>
        <time>2021-07-09T11:27:19Z</time>
      </trkpt>
      <trkpt lat="42.95058" lon="0.27088">
        <ele>1085</ele>
        <time>2021-07-09T11:27:28Z</time>
      </trkpt>
      <trkpt lat="42.95005" lon="0.27071">
        <ele>1078</ele>
        <time>2021-07-09T11:27:46Z</time>
      </trkpt>
      <trkpt lat="42.94996" lon="0.27063">
        <ele>1076</ele>
        <time>2021-07-09T11:27:49Z</time>
      </trkpt>
      <trkpt lat="42.94988" lon="0.27052">
        <ele>1074</ele>
        <time>2021-07-09T11:27:52Z</time>
      </trkpt>
      <trkpt lat="42.94982" lon="0.27039">
        <ele>1073</ele>
        <time>2021-07-09T11:27:55Z</time>
      </trkpt>
      <trkpt lat="42.9498" lon="0.27027">
        <ele>1072</ele>
        <time>2021-07-09T11:27:57Z</time>
      </trkpt>
      <trkpt lat="42.94981" lon="0.27007">
        <ele>1072</ele>
        <time>2021-07-09T11:28:00Z</time>
      </trkpt>
      <trkpt lat="42.94992" lon="0.26947">
        <ele>1072</ele>
        <time>2021-07-09T11:28:11Z</time>
      </trkpt>
      <trkpt lat="42.9499" lon="0.26902">
        <ele>1072</ele>
        <time>2021-07-09T11:28:22Z</time>
      </trkpt>
      <trkpt lat="42.94987" lon="0.26888">
        <ele>1073</ele>
        <time>2021-07-09T11:29:13Z</time>
      </trkpt>
      <trkpt lat="42.94981" lon="0.26814">
        <ele>1067</ele>
        <time>2021-07-09T11:29:25Z</time>
      </trkpt>
      <trkpt lat="42.94983" lon="0.26801">
        <ele>1066</ele>
        <time>2021-07-09T11:29:27Z</time>
      </trkpt>
      <trkpt lat="42.94988" lon="0.26789">
        <ele>1066</ele>
        <time>2021-07-09T11:29:29Z</time>
      </trkpt>
      <trkpt lat="42.94995" lon="0.2678">
        <ele>1064</ele>
        <time>2021-07-09T11:29:31Z</time>
      </trkpt>
      <trkpt lat="42.9508" lon="0.26712">
        <ele>1053</ele>
        <time>2021-07-09T11:30:16Z</time>
      </trkpt>
      <trkpt lat="42.95097" lon="0.26699">
        <ele>1052</ele>
        <time>2021-07-09T11:30:22Z</time>
      </trkpt>
      <trkpt lat="42.95121" lon="0.26683">
        <ele>1051</ele>
        <time>2021-07-09T11:30:37Z</time>
      </trkpt>
      <trkpt lat="42.95136" lon="0.26664">
        <ele>1050</ele>
        <time>2021-07-09T11:30:43Z</time>
      </trkpt>
      <trkpt lat="42.95138" lon="0.26662">
        <ele>1050</ele>
        <time>2021-07-09T11:30:45Z</time>
      </trkpt>
      <trkpt lat="42.95156" lon="0.26661">
        <ele>1050</ele>
        <time>2021-07-09T11:30:59Z</time>
      </trkpt>
      <trkpt lat="42.95163" lon="0.26657">
        <ele>1050</ele>
        <time>2021-07-09T11:31:20Z</time>
      </trkpt>
      <trkpt lat="42.95167" lon="0.26654">
        <ele>1050</ele>
        <time>2021-07-09T11:31:26Z</time>
      </trkpt>
      <trkpt lat="42.95169" lon="0.26645">
        <ele>1049</ele>
        <time>2021-07-09T11:31:47Z</time>
      </trkpt>
      <trkpt lat="42.95187" lon="0.26595">
        <ele>1049</ele>
        <time>2021-07-09T11:32:04Z</time>
      </trkpt>
      <trkpt lat="42.9519" lon="0.26589">
        <ele>1049</ele>
        <time>2021-07-09T11:32:07Z</time>
      </trkpt>
      <trkpt lat="42.95193" lon="0.26585">
        <ele>1050</ele>
        <time>2021-07-09T11:32:09Z</time>
      </trkpt>
      <trkpt lat="42.9521" lon="0.26568">
        <ele>1049</ele>
        <time>2021-07-09T11:32:21Z</time>
      </trkpt>
      <trkpt lat="42.9523" lon="0.26537">
        <ele>1047</ele>
        <time>2021-07-09T11:32:35Z</time>
      </trkpt>
      <trkpt lat="42.95233" lon="0.26533">
        <ele>1047</ele>
        <time>2021-07-09T11:32:37Z</time>
      </trkpt>
      <trkpt lat="42.95322" lon="0.26469">
        <ele>1043</ele>
        <time>2021-07-09T11:33:07Z</time>
      </trkpt>
      <trkpt lat="42.95366" lon="0.26436">
        <ele>1042</ele>
        <time>2021-07-09T11:33:23Z</time>
      </trkpt>
      <trkpt lat="42.95417" lon="0.26361">
        <ele>1037</ele>
        <time>2021-07-09T11:33:43Z</time>
      </trkpt>
      <trkpt lat="42.95432" lon="0.26321">
        <ele>1033</ele>
        <time>2021-07-09T11:33:51Z</time>
      </trkpt>
      <trkpt lat="42.95457" lon="0.26236">
        <ele>1028</ele>
        <time>2021-07-09T11:34:08Z</time>
      </trkpt>
      <trkpt lat="42.95475" lon="0.26194">
        <ele>1026</ele>
        <time>2021-07-09T11:34:16Z</time>
      </trkpt>
      <trkpt lat="42.95571" lon="0.2608">
        <ele>1020</ele>
        <time>2021-07-09T11:34:46Z</time>
      </trkpt>
      <trkpt lat="42.95626" lon="0.26015">
        <ele>1014</ele>
        <time>2021-07-09T11:35:05Z</time>
      </trkpt>
      <trkpt lat="42.9563" lon="0.26011">
        <ele>1014</ele>
        <time>2021-07-09T11:37:03Z</time>
      </trkpt>
      <trkpt lat="42.95639" lon="0.26005">
        <ele>1014</ele>
        <time>2021-07-09T11:37:08Z</time>
      </trkpt>
      <trkpt lat="42.95706" lon="0.25939">
        <ele>1009</ele>
        <time>2021-07-09T11:37:37Z</time>
      </trkpt>
      <trkpt lat="42.95711" lon="0.25932">
        <ele>1008</ele>
        <time>2021-07-09T11:37:41Z</time>
      </trkpt>
      <trkpt lat="42.95713" lon="0.25931">
        <ele>1008</ele>
        <time>2021-07-09T11:38:19Z</time>
      </trkpt>
      <trkpt lat="42.95715" lon="0.25929">
        <ele>1008</ele>
        <time>2021-07-09T11:38:47Z</time>
      </trkpt>
      <trkpt lat="42.95727" lon="0.25914">
        <ele>1007</ele>
        <time>2021-07-09T11:38:53Z</time>
      </trkpt>
      <trkpt lat="42.95779" lon="0.25867">
        <ele>998</ele>
        <time>2021-07-09T11:39:23Z</time>
      </trkpt>
      <trkpt lat="42.95835" lon="0.25825">
        <ele>994</ele>
        <time>2021-07-09T11:39:44Z</time>
      </trkpt>
      <trkpt lat="42.95858" lon="0.25813">
        <ele>994</ele>
        <time>2021-07-09T11:39:53Z</time>
      </trkpt>
      <trkpt lat="42.95884" lon="0.25793">
        <ele>995</ele>
        <time>2021-07-09T11:40:03Z</time>
      </trkpt>
      <trkpt lat="42.95943" lon="0.25766">
        <ele>993</ele>
        <time>2021-07-09T11:40:22Z</time>
      </trkpt>
      <trkpt lat="42.95985" lon="0.25742">
        <ele>992</ele>
        <time>2021-07-09T11:40:35Z</time>
      </trkpt>
      <trkpt lat="42.95994" lon="0.25741">
        <ele>992</ele>
        <time>2021-07-09T11:40:38Z</time>
      </trkpt>
      <trkpt lat="42.95997" lon="0.25742">
        <ele>992</ele>
        <time>2021-07-09T11:40:39Z</time>
      </trkpt>
      <trkpt lat="42.96002" lon="0.25742">
        <ele>991</ele>
        <time>2021-07-09T11:40:41Z</time>
      </trkpt>
      <trkpt lat="42.96005" lon="0.25744">
        <ele>991</ele>
        <time>2021-07-09T11:41:35Z</time>
      </trkpt>
      <trkpt lat="42.96024" lon="0.25775">
        <ele>994</ele>
        <time>2021-07-09T11:41:47Z</time>
      </trkpt>
      <trkpt lat="42.96031" lon="0.25803">
        <ele>996</ele>
        <time>2021-07-09T11:41:55Z</time>
      </trkpt>
      <trkpt lat="42.96035" lon="0.25808">
        <ele>997</ele>
        <time>2021-07-09T11:41:57Z</time>
      </trkpt>
      <trkpt lat="42.96039" lon="0.25808">
        <ele>997</ele>
        <time>2021-07-09T11:41:59Z</time>
      </trkpt>
      <trkpt lat="42.96043" lon="0.25806">
        <ele>998</ele>
        <time>2021-07-09T11:42:01Z</time>
      </trkpt>
      <trkpt lat="42.96046" lon="0.25801">
        <ele>998</ele>
        <time>2021-07-09T11:42:03Z</time>
      </trkpt>
      <trkpt lat="42.96047" lon="0.25787">
        <ele>1000</ele>
        <time>2021-07-09T11:42:07Z</time>
      </trkpt>
      <trkpt lat="42.96044" lon="0.25744">
        <ele>1003</ele>
        <time>2021-07-09T11:42:19Z</time>
      </trkpt>
      <trkpt lat="42.96044" lon="0.25738">
        <ele>1004</ele>
        <time>2021-07-09T11:42:21Z</time>
      </trkpt>
      <trkpt lat="42.96066" lon="0.25686">
        <ele>1011</ele>
        <time>2021-07-09T11:42:36Z</time>
      </trkpt>
      <trkpt lat="42.96073" lon="0.25677">
        <ele>1012</ele>
        <time>2021-07-09T11:42:39Z</time>
      </trkpt>
      <trkpt lat="42.9609" lon="0.25663">
        <ele>1014</ele>
        <time>2021-07-09T11:42:45Z</time>
      </trkpt>
      <trkpt lat="42.96121" lon="0.25625">
        <ele>1015</ele>
        <time>2021-07-09T11:42:58Z</time>
      </trkpt>
      <trkpt lat="42.96211" lon="0.25533">
        <ele>1014</ele>
        <time>2021-07-09T11:43:28Z</time>
      </trkpt>
      <trkpt lat="42.96236" lon="0.25514">
        <ele>1014</ele>
        <time>2021-07-09T11:43:35Z</time>
      </trkpt>
      <trkpt lat="42.96315" lon="0.25398">
        <ele>1013</ele>
        <time>2021-07-09T11:44:05Z</time>
      </trkpt>
      <trkpt lat="42.96416" lon="0.25263">
        <ele>1005</ele>
        <time>2021-07-09T11:44:35Z</time>
      </trkpt>
      <trkpt lat="42.96451" lon="0.25222">
        <ele>1003</ele>
        <time>2021-07-09T11:44:43Z</time>
      </trkpt>
      <trkpt lat="42.96552" lon="0.25135">
        <ele>999</ele>
        <time>2021-07-09T11:45:05Z</time>
      </trkpt>
      <trkpt lat="42.96558" lon="0.25127">
        <ele>999</ele>
        <time>2021-07-09T11:45:07Z</time>
      </trkpt>
      <trkpt lat="42.96559" lon="0.25122">
        <ele>998</ele>
        <time>2021-07-09T11:45:09Z</time>
      </trkpt>
      <trkpt lat="42.96561" lon="0.25117">
        <ele>998</ele>
        <time>2021-07-09T11:45:36Z</time>
      </trkpt>
      <trkpt lat="42.96583" lon="0.25082">
        <ele>995</ele>
        <time>2021-07-09T11:45:47Z</time>
      </trkpt>
      <trkpt lat="42.96602" lon="0.25061">
        <ele>994</ele>
        <time>2021-07-09T11:45:53Z</time>
      </trkpt>
      <trkpt lat="42.9662" lon="0.25045">
        <ele>993</ele>
        <time>2021-07-09T11:46:01Z</time>
      </trkpt>
      <trkpt lat="42.96629" lon="0.25033">
        <ele>992</ele>
        <time>2021-07-09T11:46:06Z</time>
      </trkpt>
      <trkpt lat="42.96725" lon="0.24957">
        <ele>985</ele>
        <time>2021-07-09T11:46:36Z</time>
      </trkpt>
      <trkpt lat="42.96856" lon="0.24882">
        <ele>977</ele>
        <time>2021-07-09T11:47:06Z</time>
      </trkpt>
      <trkpt lat="42.96893" lon="0.24854">
        <ele>973</ele>
        <time>2021-07-09T11:47:15Z</time>
      </trkpt>
      <trkpt lat="42.9691" lon="0.24836">
        <ele>972</ele>
        <time>2021-07-09T11:47:20Z</time>
      </trkpt>
      <trkpt lat="42.96958" lon="0.24757">
        <ele>958</ele>
        <time>2021-07-09T11:47:38Z</time>
      </trkpt>
      <trkpt lat="42.96968" lon="0.24749">
        <ele>956</ele>
        <time>2021-07-09T11:47:41Z</time>
      </trkpt>
      <trkpt lat="42.97005" lon="0.24725">
        <ele>950</ele>
        <time>2021-07-09T11:47:51Z</time>
      </trkpt>
      <trkpt lat="42.97018" lon="0.2471">
        <ele>948</ele>
        <time>2021-07-09T11:47:55Z</time>
      </trkpt>
      <trkpt lat="42.97036" lon="0.2468">
        <ele>945</ele>
        <time>2021-07-09T11:48:00Z</time>
      </trkpt>
      <trkpt lat="42.97073" lon="0.24652">
        <ele>942</ele>
        <time>2021-07-09T11:48:07Z</time>
      </trkpt>
      <trkpt lat="42.9713" lon="0.24575">
        <ele>936</ele>
        <time>2021-07-09T11:48:21Z</time>
      </trkpt>
      <trkpt lat="42.97134" lon="0.24571">
        <ele>935</ele>
        <time>2021-07-09T11:48:22Z</time>
      </trkpt>
      <trkpt lat="42.97154" lon="0.24567">
        <ele>934</ele>
        <time>2021-07-09T11:48:26Z</time>
      </trkpt>
      <trkpt lat="42.97183" lon="0.24568">
        <ele>933</ele>
        <time>2021-07-09T11:48:31Z</time>
      </trkpt>
      <trkpt lat="42.97188" lon="0.24566">
        <ele>933</ele>
        <time>2021-07-09T11:48:32Z</time>
      </trkpt>
      <trkpt lat="42.97198" lon="0.2456">
        <ele>933</ele>
        <time>2021-07-09T11:48:34Z</time>
      </trkpt>
      <trkpt lat="42.97228" lon="0.2452">
        <ele>930</ele>
        <time>2021-07-09T11:48:42Z</time>
      </trkpt>
      <trkpt lat="42.97242" lon="0.24509">
        <ele>928</ele>
        <time>2021-07-09T11:48:45Z</time>
      </trkpt>
      <trkpt lat="42.9725" lon="0.24498">
        <ele>926</ele>
        <time>2021-07-09T11:48:47Z</time>
      </trkpt>
      <trkpt lat="42.97259" lon="0.24479">
        <ele>925</ele>
        <time>2021-07-09T11:48:50Z</time>
      </trkpt>
      <trkpt lat="42.97263" lon="0.2446">
        <ele>925</ele>
        <time>2021-07-09T11:48:53Z</time>
      </trkpt>
      <trkpt lat="42.97268" lon="0.24412">
        <ele>924</ele>
        <time>2021-07-09T11:49:00Z</time>
      </trkpt>
      <trkpt lat="42.97276" lon="0.2437">
        <ele>924</ele>
        <time>2021-07-09T11:49:08Z</time>
      </trkpt>
      <trkpt lat="42.97276" lon="0.24365">
        <ele>923</ele>
        <time>2021-07-09T11:49:10Z</time>
      </trkpt>
      <trkpt lat="42.97278" lon="0.24362">
        <ele>923</ele>
        <time>2021-07-09T11:49:39Z</time>
      </trkpt>
      <trkpt lat="42.97393" lon="0.24324">
        <ele>919</ele>
        <time>2021-07-09T11:50:04Z</time>
      </trkpt>
      <trkpt lat="42.97532" lon="0.24313">
        <ele>917</ele>
        <time>2021-07-09T11:50:31Z</time>
      </trkpt>
      <trkpt lat="42.97581" lon="0.24289">
        <ele>917</ele>
        <time>2021-07-09T11:50:40Z</time>
      </trkpt>
      <trkpt lat="42.97734" lon="0.24249">
        <ele>908</ele>
        <time>2021-07-09T11:51:00Z</time>
      </trkpt>
      <trkpt lat="42.97747" lon="0.24241">
        <ele>908</ele>
        <time>2021-07-09T11:51:02Z</time>
      </trkpt>
      <trkpt lat="42.97758" lon="0.24229">
        <ele>908</ele>
        <time>2021-07-09T11:51:04Z</time>
      </trkpt>
      <trkpt lat="42.97777" lon="0.24199">
        <ele>907</ele>
        <time>2021-07-09T11:51:09Z</time>
      </trkpt>
      <trkpt lat="42.97845" lon="0.24021">
        <ele>909</ele>
        <time>2021-07-09T11:51:33Z</time>
      </trkpt>
      <trkpt lat="42.97859" lon="0.24004">
        <ele>909</ele>
        <time>2021-07-09T11:51:36Z</time>
      </trkpt>
      <trkpt lat="42.97881" lon="0.23987">
        <ele>910</ele>
        <time>2021-07-09T11:51:40Z</time>
      </trkpt>
      <trkpt lat="42.97939" lon="0.23954">
        <ele>912</ele>
        <time>2021-07-09T11:51:50Z</time>
      </trkpt>
      <trkpt lat="42.97967" lon="0.23917">
        <ele>912</ele>
        <time>2021-07-09T11:51:56Z</time>
      </trkpt>
      <trkpt lat="42.98094" lon="0.23752">
        <ele>907</ele>
        <time>2021-07-09T11:52:26Z</time>
      </trkpt>
      <trkpt lat="42.98204" lon="0.23617">
        <ele>898</ele>
        <time>2021-07-09T11:52:45Z</time>
      </trkpt>
      <trkpt lat="42.98226" lon="0.23573">
        <ele>894</ele>
        <time>2021-07-09T11:52:49Z</time>
      </trkpt>
      <trkpt lat="42.98237" lon="0.23532">
        <ele>892</ele>
        <time>2021-07-09T11:52:52Z</time>
      </trkpt>
      <trkpt lat="42.9826" lon="0.23438">
        <ele>888</ele>
        <time>2021-07-09T11:52:59Z</time>
      </trkpt>
      <trkpt lat="42.9828" lon="0.23395">
        <ele>888</ele>
        <time>2021-07-09T11:53:04Z</time>
      </trkpt>
      <trkpt lat="42.9829" lon="0.23382">
        <ele>887</ele>
        <time>2021-07-09T11:53:06Z</time>
      </trkpt>
      <trkpt lat="42.98343" lon="0.23337">
        <ele>884</ele>
        <time>2021-07-09T11:53:16Z</time>
      </trkpt>
      <trkpt lat="42.9835" lon="0.23326">
        <ele>884</ele>
        <time>2021-07-09T11:53:19Z</time>
      </trkpt>
      <trkpt lat="42.98351" lon="0.23323">
        <ele>883</ele>
        <time>2021-07-09T11:54:09Z</time>
      </trkpt>
      <trkpt lat="42.98385" lon="0.23238">
        <ele>879</ele>
        <time>2021-07-09T11:54:24Z</time>
      </trkpt>
      <trkpt lat="42.98386" lon="0.23219">
        <ele>878</ele>
        <time>2021-07-09T11:54:26Z</time>
      </trkpt>
      <trkpt lat="42.9838" lon="0.23189">
        <ele>877</ele>
        <time>2021-07-09T11:54:29Z</time>
      </trkpt>
      <trkpt lat="42.98324" lon="0.22973">
        <ele>868</ele>
        <time>2021-07-09T11:54:48Z</time>
      </trkpt>
      <trkpt lat="42.98313" lon="0.22954">
        <ele>867</ele>
        <time>2021-07-09T11:54:50Z</time>
      </trkpt>
      <trkpt lat="42.98272" lon="0.22908">
        <ele>863</ele>
        <time>2021-07-09T11:54:55Z</time>
      </trkpt>
      <trkpt lat="42.98237" lon="0.22887">
        <ele>860</ele>
        <time>2021-07-09T11:54:59Z</time>
      </trkpt>
      <trkpt lat="42.98232" lon="0.22881">
        <ele>859</ele>
        <time>2021-07-09T11:55:00Z</time>
      </trkpt>
      <trkpt lat="42.98228" lon="0.22874">
        <ele>859</ele>
        <time>2021-07-09T11:55:01Z</time>
      </trkpt>
      <trkpt lat="42.98225" lon="0.22865">
        <ele>859</ele>
        <time>2021-07-09T11:55:01Z</time>
      </trkpt>
      <trkpt lat="42.98224" lon="0.22847">
        <ele>859</ele>
        <time>2021-07-09T11:55:03Z</time>
      </trkpt>
      <trkpt lat="42.98226" lon="0.22839">
        <ele>859</ele>
        <time>2021-07-09T11:55:04Z</time>
      </trkpt>
      <trkpt lat="42.98229" lon="0.22832">
        <ele>859</ele>
        <time>2021-07-09T11:55:05Z</time>
      </trkpt>
      <trkpt lat="42.98238" lon="0.22822">
        <ele>859</ele>
        <time>2021-07-09T11:55:07Z</time>
      </trkpt>
      <trkpt lat="42.98249" lon="0.22817">
        <ele>859</ele>
        <time>2021-07-09T11:55:09Z</time>
      </trkpt>
      <trkpt lat="42.98264" lon="0.22816">
        <ele>859</ele>
        <time>2021-07-09T11:55:12Z</time>
      </trkpt>
      <trkpt lat="42.98268" lon="0.22817">
        <ele>859</ele>
        <time>2021-07-09T11:55:13Z</time>
      </trkpt>
    </trkseg>
  </trk>
</gpx>